<?xml version="1.0" encoding="UTF-8" standalone="no" ?>
<gpx xmlns="http://www.topografix.com/GPX/1/1" xmlns:xsi="http://www.w3.org/2001/XMLSchema-instance" xsi:schemaLocation="http://www.topografix.com/GPX/1/1 http://www.topografix.com/GPX/1/1/gpx.xsd" version="1.1" creator="VisuGPX - https://www.visugpx.com">
  <metadata>
    <name>LONGVIC : en longeant l'OUCHE</name>
    <desc><![CDATA[Marche facile, à plat, dans un environnement ombragé.]]></desc>
  </metadata>
  <trk>
    <name><![CDATA[2016-09-06-01]]></name>
    <trkseg>
      <trkpt lat="47.28309" lon="5.07616">
        <ele>219.4</ele>
        <time>2016-09-06T11:58:12Z</time>
      </trkpt>
      <trkpt lat="47.28309" lon="5.07616">
        <ele>219.5</ele>
        <time>2016-09-06T11:58:13Z</time>
      </trkpt>
      <trkpt lat="47.28302" lon="5.07609">
        <ele>219.9</ele>
        <time>2016-09-06T11:58:33Z</time>
      </trkpt>
      <trkpt lat="47.28293" lon="5.076">
        <ele>219.2</ele>
        <time>2016-09-06T11:59:02Z</time>
      </trkpt>
      <trkpt lat="47.28283" lon="5.07599">
        <ele>219.5</ele>
        <time>2016-09-06T11:59:15Z</time>
      </trkpt>
      <trkpt lat="47.28276" lon="5.0759">
        <ele>219.9</ele>
        <time>2016-09-06T11:59:43Z</time>
      </trkpt>
      <trkpt lat="47.28271" lon="5.07577">
        <ele>219.9</ele>
        <time>2016-09-06T12:00:37Z</time>
      </trkpt>
      <trkpt lat="47.28264" lon="5.0757">
        <ele>219.5</ele>
        <time>2016-09-06T12:00:44Z</time>
      </trkpt>
      <trkpt lat="47.28256" lon="5.07564">
        <ele>219.6</ele>
        <time>2016-09-06T12:00:50Z</time>
      </trkpt>
      <trkpt lat="47.28248" lon="5.07556">
        <ele>220</ele>
        <time>2016-09-06T12:01:34Z</time>
      </trkpt>
      <trkpt lat="47.2824" lon="5.07551">
        <ele>219.9</ele>
        <time>2016-09-06T12:01:39Z</time>
      </trkpt>
      <trkpt lat="47.2823" lon="5.07551">
        <ele>220.1</ele>
        <time>2016-09-06T12:01:45Z</time>
      </trkpt>
      <trkpt lat="47.2822" lon="5.07556">
        <ele>220.4</ele>
        <time>2016-09-06T12:01:52Z</time>
      </trkpt>
      <trkpt lat="47.28218" lon="5.07572">
        <ele>220.3</ele>
        <time>2016-09-06T12:01:59Z</time>
      </trkpt>
      <trkpt lat="47.2822" lon="5.07585">
        <ele>220.7</ele>
        <time>2016-09-06T12:02:05Z</time>
      </trkpt>
      <trkpt lat="47.2822" lon="5.07599">
        <ele>220.7</ele>
        <time>2016-09-06T12:02:12Z</time>
      </trkpt>
      <trkpt lat="47.28223" lon="5.07614">
        <ele>221.2</ele>
        <time>2016-09-06T12:02:20Z</time>
      </trkpt>
      <trkpt lat="47.28225" lon="5.07628">
        <ele>221.1</ele>
        <time>2016-09-06T12:02:28Z</time>
      </trkpt>
      <trkpt lat="47.28227" lon="5.07642">
        <ele>221.1</ele>
        <time>2016-09-06T12:02:36Z</time>
      </trkpt>
      <trkpt lat="47.28229" lon="5.07656">
        <ele>220.9</ele>
        <time>2016-09-06T12:02:42Z</time>
      </trkpt>
      <trkpt lat="47.28232" lon="5.0767">
        <ele>220.8</ele>
        <time>2016-09-06T12:02:48Z</time>
      </trkpt>
      <trkpt lat="47.28235" lon="5.07683">
        <ele>220.9</ele>
        <time>2016-09-06T12:02:53Z</time>
      </trkpt>
      <trkpt lat="47.2824" lon="5.07696">
        <ele>220.4</ele>
        <time>2016-09-06T12:03:00Z</time>
      </trkpt>
      <trkpt lat="47.28244" lon="5.07708">
        <ele>220.3</ele>
        <time>2016-09-06T12:03:07Z</time>
      </trkpt>
      <trkpt lat="47.28249" lon="5.07719">
        <ele>220.3</ele>
        <time>2016-09-06T12:03:14Z</time>
      </trkpt>
      <trkpt lat="47.28254" lon="5.07733">
        <ele>220.1</ele>
        <time>2016-09-06T12:03:21Z</time>
      </trkpt>
      <trkpt lat="47.28259" lon="5.07746">
        <ele>220.8</ele>
        <time>2016-09-06T12:03:28Z</time>
      </trkpt>
      <trkpt lat="47.28263" lon="5.07759">
        <ele>220.5</ele>
        <time>2016-09-06T12:03:34Z</time>
      </trkpt>
      <trkpt lat="47.28268" lon="5.07772">
        <ele>220.7</ele>
        <time>2016-09-06T12:03:40Z</time>
      </trkpt>
      <trkpt lat="47.28274" lon="5.07784">
        <ele>220.7</ele>
        <time>2016-09-06T12:03:47Z</time>
      </trkpt>
      <trkpt lat="47.2828" lon="5.07795">
        <ele>220.5</ele>
        <time>2016-09-06T12:03:54Z</time>
      </trkpt>
      <trkpt lat="47.28287" lon="5.07804">
        <ele>220.3</ele>
        <time>2016-09-06T12:04:01Z</time>
      </trkpt>
      <trkpt lat="47.28293" lon="5.07815">
        <ele>220.4</ele>
        <time>2016-09-06T12:04:07Z</time>
      </trkpt>
      <trkpt lat="47.28299" lon="5.07824">
        <ele>220.5</ele>
        <time>2016-09-06T12:04:14Z</time>
      </trkpt>
      <trkpt lat="47.283" lon="5.07838">
        <ele>220.4</ele>
        <time>2016-09-06T12:04:19Z</time>
      </trkpt>
      <trkpt lat="47.28305" lon="5.07851">
        <ele>220.7</ele>
        <time>2016-09-06T12:04:25Z</time>
      </trkpt>
      <trkpt lat="47.28312" lon="5.07859">
        <ele>221.2</ele>
        <time>2016-09-06T12:04:32Z</time>
      </trkpt>
      <trkpt lat="47.28321" lon="5.07862">
        <ele>221</ele>
        <time>2016-09-06T12:04:39Z</time>
      </trkpt>
      <trkpt lat="47.28326" lon="5.07875">
        <ele>220.5</ele>
        <time>2016-09-06T12:04:45Z</time>
      </trkpt>
      <trkpt lat="47.28332" lon="5.07888">
        <ele>220.5</ele>
        <time>2016-09-06T12:04:51Z</time>
      </trkpt>
      <trkpt lat="47.28337" lon="5.07899">
        <ele>220.7</ele>
        <time>2016-09-06T12:04:57Z</time>
      </trkpt>
      <trkpt lat="47.28344" lon="5.07907">
        <ele>220.5</ele>
        <time>2016-09-06T12:05:03Z</time>
      </trkpt>
      <trkpt lat="47.28352" lon="5.07913">
        <ele>220.3</ele>
        <time>2016-09-06T12:05:09Z</time>
      </trkpt>
      <trkpt lat="47.28361" lon="5.0792">
        <ele>221</ele>
        <time>2016-09-06T12:05:16Z</time>
      </trkpt>
      <trkpt lat="47.2837" lon="5.07926">
        <ele>220.7</ele>
        <time>2016-09-06T12:05:23Z</time>
      </trkpt>
      <trkpt lat="47.28379" lon="5.07929">
        <ele>220.9</ele>
        <time>2016-09-06T12:05:29Z</time>
      </trkpt>
      <trkpt lat="47.28388" lon="5.07934">
        <ele>220.3</ele>
        <time>2016-09-06T12:05:36Z</time>
      </trkpt>
      <trkpt lat="47.28398" lon="5.07934">
        <ele>220.1</ele>
        <time>2016-09-06T12:05:42Z</time>
      </trkpt>
      <trkpt lat="47.28408" lon="5.07934">
        <ele>220.7</ele>
        <time>2016-09-06T12:05:48Z</time>
      </trkpt>
      <trkpt lat="47.28417" lon="5.07937">
        <ele>220.7</ele>
        <time>2016-09-06T12:05:54Z</time>
      </trkpt>
      <trkpt lat="47.28426" lon="5.07937">
        <ele>220.6</ele>
        <time>2016-09-06T12:05:59Z</time>
      </trkpt>
      <trkpt lat="47.28436" lon="5.07935">
        <ele>220.6</ele>
        <time>2016-09-06T12:06:06Z</time>
      </trkpt>
      <trkpt lat="47.28444" lon="5.07941">
        <ele>220.7</ele>
        <time>2016-09-06T12:06:14Z</time>
      </trkpt>
      <trkpt lat="47.28455" lon="5.07942">
        <ele>220.6</ele>
        <time>2016-09-06T12:06:21Z</time>
      </trkpt>
      <trkpt lat="47.28464" lon="5.07943">
        <ele>220.6</ele>
        <time>2016-09-06T12:06:27Z</time>
      </trkpt>
      <trkpt lat="47.28473" lon="5.07937">
        <ele>220</ele>
        <time>2016-09-06T12:06:37Z</time>
      </trkpt>
      <trkpt lat="47.2848" lon="5.07928">
        <ele>220.1</ele>
        <time>2016-09-06T12:06:42Z</time>
      </trkpt>
      <trkpt lat="47.28487" lon="5.0792">
        <ele>219.5</ele>
        <time>2016-09-06T12:06:51Z</time>
      </trkpt>
      <trkpt lat="47.28498" lon="5.07916">
        <ele>220</ele>
        <time>2016-09-06T12:06:58Z</time>
      </trkpt>
      <trkpt lat="47.28507" lon="5.07915">
        <ele>220.1</ele>
        <time>2016-09-06T12:07:01Z</time>
      </trkpt>
      <trkpt lat="47.28516" lon="5.07912">
        <ele>220</ele>
        <time>2016-09-06T12:07:05Z</time>
      </trkpt>
      <trkpt lat="47.28525" lon="5.07908">
        <ele>219.9</ele>
        <time>2016-09-06T12:07:11Z</time>
      </trkpt>
      <trkpt lat="47.28535" lon="5.07904">
        <ele>219.6</ele>
        <time>2016-09-06T12:07:22Z</time>
      </trkpt>
      <trkpt lat="47.28544" lon="5.07899">
        <ele>219.7</ele>
        <time>2016-09-06T12:07:28Z</time>
      </trkpt>
      <trkpt lat="47.28554" lon="5.07896">
        <ele>220.1</ele>
        <time>2016-09-06T12:07:34Z</time>
      </trkpt>
      <trkpt lat="47.28564" lon="5.07893">
        <ele>219.6</ele>
        <time>2016-09-06T12:07:45Z</time>
      </trkpt>
      <trkpt lat="47.28574" lon="5.07889">
        <ele>219.7</ele>
        <time>2016-09-06T12:07:53Z</time>
      </trkpt>
      <trkpt lat="47.28583" lon="5.07889">
        <ele>219.7</ele>
        <time>2016-09-06T12:08:01Z</time>
      </trkpt>
      <trkpt lat="47.28592" lon="5.07892">
        <ele>220.1</ele>
        <time>2016-09-06T12:08:09Z</time>
      </trkpt>
      <trkpt lat="47.28604" lon="5.07891">
        <ele>220.2</ele>
        <time>2016-09-06T12:08:14Z</time>
      </trkpt>
      <trkpt lat="47.28615" lon="5.07892">
        <ele>220.2</ele>
        <time>2016-09-06T12:08:18Z</time>
      </trkpt>
      <trkpt lat="47.28623" lon="5.07897">
        <ele>219.9</ele>
        <time>2016-09-06T12:08:26Z</time>
      </trkpt>
      <trkpt lat="47.28631" lon="5.07903">
        <ele>219.8</ele>
        <time>2016-09-06T12:08:33Z</time>
      </trkpt>
      <trkpt lat="47.2864" lon="5.07912">
        <ele>219.9</ele>
        <time>2016-09-06T12:08:39Z</time>
      </trkpt>
      <trkpt lat="47.28648" lon="5.07921">
        <ele>220</ele>
        <time>2016-09-06T12:08:44Z</time>
      </trkpt>
      <trkpt lat="47.28659" lon="5.07924">
        <ele>220.3</ele>
        <time>2016-09-06T12:08:51Z</time>
      </trkpt>
      <trkpt lat="47.28668" lon="5.07931">
        <ele>220</ele>
        <time>2016-09-06T12:08:57Z</time>
      </trkpt>
      <trkpt lat="47.28677" lon="5.07931">
        <ele>220</ele>
        <time>2016-09-06T12:09:03Z</time>
      </trkpt>
      <trkpt lat="47.28684" lon="5.07943">
        <ele>219.9</ele>
        <time>2016-09-06T12:09:11Z</time>
      </trkpt>
      <trkpt lat="47.28693" lon="5.07947">
        <ele>219.5</ele>
        <time>2016-09-06T12:09:18Z</time>
      </trkpt>
      <trkpt lat="47.28701" lon="5.07954">
        <ele>219.2</ele>
        <time>2016-09-06T12:09:25Z</time>
      </trkpt>
      <trkpt lat="47.28702" lon="5.07968">
        <ele>219</ele>
        <time>2016-09-06T12:09:32Z</time>
      </trkpt>
      <trkpt lat="47.28702" lon="5.07983">
        <ele>218.6</ele>
        <time>2016-09-06T12:09:39Z</time>
      </trkpt>
      <trkpt lat="47.28704" lon="5.07996">
        <ele>219</ele>
        <time>2016-09-06T12:09:45Z</time>
      </trkpt>
      <trkpt lat="47.28706" lon="5.08011">
        <ele>218.9</ele>
        <time>2016-09-06T12:09:52Z</time>
      </trkpt>
      <trkpt lat="47.2871" lon="5.08024">
        <ele>218.6</ele>
        <time>2016-09-06T12:10:01Z</time>
      </trkpt>
      <trkpt lat="47.28712" lon="5.08037">
        <ele>218.7</ele>
        <time>2016-09-06T12:10:09Z</time>
      </trkpt>
      <trkpt lat="47.28712" lon="5.08051">
        <ele>219</ele>
        <time>2016-09-06T12:10:19Z</time>
      </trkpt>
      <trkpt lat="47.28708" lon="5.08063">
        <ele>219.5</ele>
        <time>2016-09-06T12:10:50Z</time>
      </trkpt>
      <trkpt lat="47.28715" lon="5.08072">
        <ele>221.8</ele>
        <time>2016-09-06T12:11:24Z</time>
      </trkpt>
      <trkpt lat="47.28723" lon="5.08079">
        <ele>222.6</ele>
        <time>2016-09-06T12:12:22Z</time>
      </trkpt>
      <trkpt lat="47.28727" lon="5.08092">
        <ele>222.9</ele>
        <time>2016-09-06T12:12:33Z</time>
      </trkpt>
      <trkpt lat="47.28735" lon="5.08102">
        <ele>222.9</ele>
        <time>2016-09-06T12:12:41Z</time>
      </trkpt>
      <trkpt lat="47.28737" lon="5.08115">
        <ele>222.6</ele>
        <time>2016-09-06T12:12:52Z</time>
      </trkpt>
      <trkpt lat="47.28738" lon="5.08129">
        <ele>222.9</ele>
        <time>2016-09-06T12:13:00Z</time>
      </trkpt>
      <trkpt lat="47.28738" lon="5.08143">
        <ele>222.8</ele>
        <time>2016-09-06T12:13:08Z</time>
      </trkpt>
      <trkpt lat="47.28737" lon="5.08156">
        <ele>222.6</ele>
        <time>2016-09-06T12:13:15Z</time>
      </trkpt>
      <trkpt lat="47.28738" lon="5.0817">
        <ele>222.5</ele>
        <time>2016-09-06T12:13:23Z</time>
      </trkpt>
      <trkpt lat="47.28739" lon="5.08185">
        <ele>222.4</ele>
        <time>2016-09-06T12:13:30Z</time>
      </trkpt>
      <trkpt lat="47.2874" lon="5.08198">
        <ele>222.5</ele>
        <time>2016-09-06T12:13:37Z</time>
      </trkpt>
      <trkpt lat="47.28741" lon="5.08211">
        <ele>222.7</ele>
        <time>2016-09-06T12:13:45Z</time>
      </trkpt>
      <trkpt lat="47.28743" lon="5.08225">
        <ele>222.1</ele>
        <time>2016-09-06T12:13:54Z</time>
      </trkpt>
      <trkpt lat="47.28745" lon="5.0824">
        <ele>221.7</ele>
        <time>2016-09-06T12:14:02Z</time>
      </trkpt>
      <trkpt lat="47.28743" lon="5.08253">
        <ele>221.4</ele>
        <time>2016-09-06T12:14:10Z</time>
      </trkpt>
      <trkpt lat="47.28737" lon="5.08264">
        <ele>220.7</ele>
        <time>2016-09-06T12:14:20Z</time>
      </trkpt>
      <trkpt lat="47.28729" lon="5.08272">
        <ele>220.2</ele>
        <time>2016-09-06T12:14:30Z</time>
      </trkpt>
      <trkpt lat="47.28723" lon="5.08284">
        <ele>220.2</ele>
        <time>2016-09-06T12:14:39Z</time>
      </trkpt>
      <trkpt lat="47.28716" lon="5.08294">
        <ele>220.1</ele>
        <time>2016-09-06T12:14:47Z</time>
      </trkpt>
      <trkpt lat="47.28709" lon="5.08302">
        <ele>219.8</ele>
        <time>2016-09-06T12:14:55Z</time>
      </trkpt>
      <trkpt lat="47.28702" lon="5.08311">
        <ele>219.8</ele>
        <time>2016-09-06T12:15:03Z</time>
      </trkpt>
      <trkpt lat="47.28695" lon="5.0832">
        <ele>219.7</ele>
        <time>2016-09-06T12:15:10Z</time>
      </trkpt>
      <trkpt lat="47.28688" lon="5.08331">
        <ele>219.8</ele>
        <time>2016-09-06T12:16:39Z</time>
      </trkpt>
      <trkpt lat="47.28681" lon="5.08339">
        <ele>219.4</ele>
        <time>2016-09-06T12:16:47Z</time>
      </trkpt>
      <trkpt lat="47.28675" lon="5.0835">
        <ele>219.7</ele>
        <time>2016-09-06T12:17:01Z</time>
      </trkpt>
      <trkpt lat="47.2867" lon="5.08362">
        <ele>219.8</ele>
        <time>2016-09-06T12:17:10Z</time>
      </trkpt>
      <trkpt lat="47.28665" lon="5.08373">
        <ele>219.7</ele>
        <time>2016-09-06T12:17:20Z</time>
      </trkpt>
      <trkpt lat="47.28657" lon="5.08383">
        <ele>220.1</ele>
        <time>2016-09-06T12:17:31Z</time>
      </trkpt>
      <trkpt lat="47.2865" lon="5.08393">
        <ele>220</ele>
        <time>2016-09-06T12:17:39Z</time>
      </trkpt>
      <trkpt lat="47.28644" lon="5.08403">
        <ele>220</ele>
        <time>2016-09-06T12:17:47Z</time>
      </trkpt>
      <trkpt lat="47.28638" lon="5.08413">
        <ele>219.9</ele>
        <time>2016-09-06T12:17:56Z</time>
      </trkpt>
      <trkpt lat="47.28628" lon="5.08418">
        <ele>220.2</ele>
        <time>2016-09-06T12:18:04Z</time>
      </trkpt>
      <trkpt lat="47.28619" lon="5.08422">
        <ele>220.4</ele>
        <time>2016-09-06T12:18:12Z</time>
      </trkpt>
      <trkpt lat="47.28611" lon="5.08429">
        <ele>220.3</ele>
        <time>2016-09-06T12:18:21Z</time>
      </trkpt>
      <trkpt lat="47.28602" lon="5.08435">
        <ele>220.4</ele>
        <time>2016-09-06T12:18:29Z</time>
      </trkpt>
      <trkpt lat="47.28593" lon="5.08439">
        <ele>220.3</ele>
        <time>2016-09-06T12:18:38Z</time>
      </trkpt>
      <trkpt lat="47.28584" lon="5.08442">
        <ele>220.1</ele>
        <time>2016-09-06T12:18:47Z</time>
      </trkpt>
      <trkpt lat="47.28575" lon="5.08446">
        <ele>220</ele>
        <time>2016-09-06T12:18:55Z</time>
      </trkpt>
      <trkpt lat="47.28565" lon="5.08448">
        <ele>220.1</ele>
        <time>2016-09-06T12:19:04Z</time>
      </trkpt>
      <trkpt lat="47.28556" lon="5.08451">
        <ele>220.4</ele>
        <time>2016-09-06T12:19:12Z</time>
      </trkpt>
      <trkpt lat="47.28546" lon="5.08456">
        <ele>220.4</ele>
        <time>2016-09-06T12:19:20Z</time>
      </trkpt>
      <trkpt lat="47.28537" lon="5.08461">
        <ele>220.5</ele>
        <time>2016-09-06T12:19:28Z</time>
      </trkpt>
      <trkpt lat="47.28528" lon="5.08466">
        <ele>220.2</ele>
        <time>2016-09-06T12:19:36Z</time>
      </trkpt>
      <trkpt lat="47.28518" lon="5.08471">
        <ele>220.3</ele>
        <time>2016-09-06T12:19:44Z</time>
      </trkpt>
      <trkpt lat="47.2851" lon="5.08477">
        <ele>220.2</ele>
        <time>2016-09-06T12:19:52Z</time>
      </trkpt>
      <trkpt lat="47.285" lon="5.08478">
        <ele>219.7</ele>
        <time>2016-09-06T12:19:59Z</time>
      </trkpt>
      <trkpt lat="47.28492" lon="5.08485">
        <ele>219.7</ele>
        <time>2016-09-06T12:20:06Z</time>
      </trkpt>
      <trkpt lat="47.28485" lon="5.08494">
        <ele>219.6</ele>
        <time>2016-09-06T12:20:14Z</time>
      </trkpt>
      <trkpt lat="47.28477" lon="5.08502">
        <ele>219.2</ele>
        <time>2016-09-06T12:20:23Z</time>
      </trkpt>
      <trkpt lat="47.28471" lon="5.08512">
        <ele>219</ele>
        <time>2016-09-06T12:20:30Z</time>
      </trkpt>
      <trkpt lat="47.28464" lon="5.08523">
        <ele>219</ele>
        <time>2016-09-06T12:20:39Z</time>
      </trkpt>
      <trkpt lat="47.28458" lon="5.08533">
        <ele>219</ele>
        <time>2016-09-06T12:20:47Z</time>
      </trkpt>
      <trkpt lat="47.28451" lon="5.08543">
        <ele>218.9</ele>
        <time>2016-09-06T12:20:55Z</time>
      </trkpt>
      <trkpt lat="47.28445" lon="5.08553">
        <ele>219</ele>
        <time>2016-09-06T12:21:02Z</time>
      </trkpt>
      <trkpt lat="47.28439" lon="5.08564">
        <ele>219.1</ele>
        <time>2016-09-06T12:21:10Z</time>
      </trkpt>
      <trkpt lat="47.28432" lon="5.08573">
        <ele>219</ele>
        <time>2016-09-06T12:21:18Z</time>
      </trkpt>
      <trkpt lat="47.28425" lon="5.08582">
        <ele>219.1</ele>
        <time>2016-09-06T12:21:27Z</time>
      </trkpt>
      <trkpt lat="47.28417" lon="5.0859">
        <ele>219.2</ele>
        <time>2016-09-06T12:21:35Z</time>
      </trkpt>
      <trkpt lat="47.28409" lon="5.08598">
        <ele>219</ele>
        <time>2016-09-06T12:21:43Z</time>
      </trkpt>
      <trkpt lat="47.28403" lon="5.08608">
        <ele>219.2</ele>
        <time>2016-09-06T12:21:51Z</time>
      </trkpt>
      <trkpt lat="47.28396" lon="5.08618">
        <ele>219.4</ele>
        <time>2016-09-06T12:21:59Z</time>
      </trkpt>
      <trkpt lat="47.2839" lon="5.08628">
        <ele>219.5</ele>
        <time>2016-09-06T12:22:07Z</time>
      </trkpt>
      <trkpt lat="47.28383" lon="5.08638">
        <ele>220.1</ele>
        <time>2016-09-06T12:22:17Z</time>
      </trkpt>
      <trkpt lat="47.28375" lon="5.08647">
        <ele>220.2</ele>
        <time>2016-09-06T12:22:25Z</time>
      </trkpt>
      <trkpt lat="47.2837" lon="5.08659">
        <ele>220.3</ele>
        <time>2016-09-06T12:22:34Z</time>
      </trkpt>
      <trkpt lat="47.28366" lon="5.08672">
        <ele>220.1</ele>
        <time>2016-09-06T12:22:43Z</time>
      </trkpt>
      <trkpt lat="47.28361" lon="5.08684">
        <ele>220.2</ele>
        <time>2016-09-06T12:22:53Z</time>
      </trkpt>
      <trkpt lat="47.28359" lon="5.08698">
        <ele>220.5</ele>
        <time>2016-09-06T12:23:00Z</time>
      </trkpt>
      <trkpt lat="47.28356" lon="5.08711">
        <ele>220.4</ele>
        <time>2016-09-06T12:23:08Z</time>
      </trkpt>
      <trkpt lat="47.28354" lon="5.08725">
        <ele>220.2</ele>
        <time>2016-09-06T12:23:16Z</time>
      </trkpt>
      <trkpt lat="47.28353" lon="5.08739">
        <ele>219.8</ele>
        <time>2016-09-06T12:23:24Z</time>
      </trkpt>
      <trkpt lat="47.28351" lon="5.08752">
        <ele>220.1</ele>
        <time>2016-09-06T12:23:31Z</time>
      </trkpt>
      <trkpt lat="47.28349" lon="5.08765">
        <ele>220.3</ele>
        <time>2016-09-06T12:23:40Z</time>
      </trkpt>
      <trkpt lat="47.28346" lon="5.08779">
        <ele>220</ele>
        <time>2016-09-06T12:23:48Z</time>
      </trkpt>
      <trkpt lat="47.28344" lon="5.08792">
        <ele>220.1</ele>
        <time>2016-09-06T12:23:56Z</time>
      </trkpt>
      <trkpt lat="47.28341" lon="5.08805">
        <ele>220.4</ele>
        <time>2016-09-06T12:24:04Z</time>
      </trkpt>
      <trkpt lat="47.28343" lon="5.08819">
        <ele>220.6</ele>
        <time>2016-09-06T12:24:11Z</time>
      </trkpt>
      <trkpt lat="47.28345" lon="5.08832">
        <ele>220.5</ele>
        <time>2016-09-06T12:24:19Z</time>
      </trkpt>
      <trkpt lat="47.28347" lon="5.08845">
        <ele>220.1</ele>
        <time>2016-09-06T12:24:27Z</time>
      </trkpt>
      <trkpt lat="47.28352" lon="5.08858">
        <ele>220.1</ele>
        <time>2016-09-06T12:24:35Z</time>
      </trkpt>
      <trkpt lat="47.28355" lon="5.08871">
        <ele>220</ele>
        <time>2016-09-06T12:24:44Z</time>
      </trkpt>
      <trkpt lat="47.28358" lon="5.08884">
        <ele>220.1</ele>
        <time>2016-09-06T12:24:51Z</time>
      </trkpt>
      <trkpt lat="47.28361" lon="5.08899">
        <ele>219.8</ele>
        <time>2016-09-06T12:24:59Z</time>
      </trkpt>
      <trkpt lat="47.28364" lon="5.08912">
        <ele>219.4</ele>
        <time>2016-09-06T12:25:07Z</time>
      </trkpt>
      <trkpt lat="47.28368" lon="5.08925">
        <ele>219.2</ele>
        <time>2016-09-06T12:25:16Z</time>
      </trkpt>
      <trkpt lat="47.28371" lon="5.08938">
        <ele>218.9</ele>
        <time>2016-09-06T12:25:24Z</time>
      </trkpt>
      <trkpt lat="47.28373" lon="5.08951">
        <ele>219.2</ele>
        <time>2016-09-06T12:25:31Z</time>
      </trkpt>
      <trkpt lat="47.28377" lon="5.08965">
        <ele>218.8</ele>
        <time>2016-09-06T12:25:39Z</time>
      </trkpt>
      <trkpt lat="47.2838" lon="5.08979">
        <ele>218.8</ele>
        <time>2016-09-06T12:25:47Z</time>
      </trkpt>
      <trkpt lat="47.28383" lon="5.08991">
        <ele>218.7</ele>
        <time>2016-09-06T12:25:55Z</time>
      </trkpt>
      <trkpt lat="47.28388" lon="5.09003">
        <ele>218.9</ele>
        <time>2016-09-06T12:26:02Z</time>
      </trkpt>
      <trkpt lat="47.28392" lon="5.09017">
        <ele>219.1</ele>
        <time>2016-09-06T12:26:09Z</time>
      </trkpt>
      <trkpt lat="47.28397" lon="5.09028">
        <ele>218.6</ele>
        <time>2016-09-06T12:26:17Z</time>
      </trkpt>
      <trkpt lat="47.28402" lon="5.0904">
        <ele>218.5</ele>
        <time>2016-09-06T12:26:26Z</time>
      </trkpt>
      <trkpt lat="47.28407" lon="5.09052">
        <ele>218.4</ele>
        <time>2016-09-06T12:26:33Z</time>
      </trkpt>
      <trkpt lat="47.2841" lon="5.09067">
        <ele>219</ele>
        <time>2016-09-06T12:26:41Z</time>
      </trkpt>
      <trkpt lat="47.28412" lon="5.09081">
        <ele>218.7</ele>
        <time>2016-09-06T12:26:48Z</time>
      </trkpt>
      <trkpt lat="47.28417" lon="5.09093">
        <ele>218.3</ele>
        <time>2016-09-06T12:26:56Z</time>
      </trkpt>
      <trkpt lat="47.28423" lon="5.09104">
        <ele>218.5</ele>
        <time>2016-09-06T12:27:05Z</time>
      </trkpt>
      <trkpt lat="47.28429" lon="5.09115">
        <ele>218.3</ele>
        <time>2016-09-06T12:27:14Z</time>
      </trkpt>
      <trkpt lat="47.28433" lon="5.09127">
        <ele>218.4</ele>
        <time>2016-09-06T12:27:22Z</time>
      </trkpt>
      <trkpt lat="47.28437" lon="5.0914">
        <ele>217.8</ele>
        <time>2016-09-06T12:27:30Z</time>
      </trkpt>
      <trkpt lat="47.28441" lon="5.09153">
        <ele>217.8</ele>
        <time>2016-09-06T12:27:38Z</time>
      </trkpt>
      <trkpt lat="47.28444" lon="5.09166">
        <ele>217.9</ele>
        <time>2016-09-06T12:27:45Z</time>
      </trkpt>
      <trkpt lat="47.28449" lon="5.09178">
        <ele>218.2</ele>
        <time>2016-09-06T12:27:53Z</time>
      </trkpt>
      <trkpt lat="47.28452" lon="5.09193">
        <ele>218.2</ele>
        <time>2016-09-06T12:28:01Z</time>
      </trkpt>
      <trkpt lat="47.28456" lon="5.09204">
        <ele>218.4</ele>
        <time>2016-09-06T12:28:08Z</time>
      </trkpt>
      <trkpt lat="47.28459" lon="5.09218">
        <ele>218.1</ele>
        <time>2016-09-06T12:28:16Z</time>
      </trkpt>
      <trkpt lat="47.28463" lon="5.09231">
        <ele>218.2</ele>
        <time>2016-09-06T12:28:24Z</time>
      </trkpt>
      <trkpt lat="47.28467" lon="5.09243">
        <ele>218.1</ele>
        <time>2016-09-06T12:28:32Z</time>
      </trkpt>
      <trkpt lat="47.28471" lon="5.09257">
        <ele>218.5</ele>
        <time>2016-09-06T12:28:40Z</time>
      </trkpt>
      <trkpt lat="47.28476" lon="5.09269">
        <ele>218.6</ele>
        <time>2016-09-06T12:28:47Z</time>
      </trkpt>
      <trkpt lat="47.28481" lon="5.0928">
        <ele>218.1</ele>
        <time>2016-09-06T12:28:56Z</time>
      </trkpt>
      <trkpt lat="47.28487" lon="5.09293">
        <ele>218</ele>
        <time>2016-09-06T12:29:05Z</time>
      </trkpt>
      <trkpt lat="47.28492" lon="5.09304">
        <ele>218.2</ele>
        <time>2016-09-06T12:29:14Z</time>
      </trkpt>
      <trkpt lat="47.28496" lon="5.09316">
        <ele>218.2</ele>
        <time>2016-09-06T12:29:22Z</time>
      </trkpt>
      <trkpt lat="47.28499" lon="5.09329">
        <ele>218</ele>
        <time>2016-09-06T12:29:31Z</time>
      </trkpt>
      <trkpt lat="47.28504" lon="5.09342">
        <ele>218.1</ele>
        <time>2016-09-06T12:29:41Z</time>
      </trkpt>
      <trkpt lat="47.28506" lon="5.09356">
        <ele>218</ele>
        <time>2016-09-06T12:29:49Z</time>
      </trkpt>
      <trkpt lat="47.28507" lon="5.0937">
        <ele>218</ele>
        <time>2016-09-06T12:29:56Z</time>
      </trkpt>
      <trkpt lat="47.28505" lon="5.09385">
        <ele>218</ele>
        <time>2016-09-06T12:30:02Z</time>
      </trkpt>
      <trkpt lat="47.28509" lon="5.09398">
        <ele>218.1</ele>
        <time>2016-09-06T12:30:10Z</time>
      </trkpt>
      <trkpt lat="47.28512" lon="5.0941">
        <ele>218.3</ele>
        <time>2016-09-06T12:30:18Z</time>
      </trkpt>
      <trkpt lat="47.28514" lon="5.09424">
        <ele>218.4</ele>
        <time>2016-09-06T12:30:26Z</time>
      </trkpt>
      <trkpt lat="47.28518" lon="5.09436">
        <ele>218.6</ele>
        <time>2016-09-06T12:30:34Z</time>
      </trkpt>
      <trkpt lat="47.28522" lon="5.09448">
        <ele>218.3</ele>
        <time>2016-09-06T12:30:44Z</time>
      </trkpt>
      <trkpt lat="47.28519" lon="5.09462">
        <ele>218.3</ele>
        <time>2016-09-06T12:30:51Z</time>
      </trkpt>
      <trkpt lat="47.2852" lon="5.09476">
        <ele>218.4</ele>
        <time>2016-09-06T12:30:59Z</time>
      </trkpt>
      <trkpt lat="47.2852" lon="5.09491">
        <ele>218.2</ele>
        <time>2016-09-06T12:31:10Z</time>
      </trkpt>
      <trkpt lat="47.28519" lon="5.09504">
        <ele>218.5</ele>
        <time>2016-09-06T12:31:18Z</time>
      </trkpt>
      <trkpt lat="47.28516" lon="5.09518">
        <ele>218.4</ele>
        <time>2016-09-06T12:31:29Z</time>
      </trkpt>
      <trkpt lat="47.28512" lon="5.0953">
        <ele>218.4</ele>
        <time>2016-09-06T12:31:36Z</time>
      </trkpt>
      <trkpt lat="47.28509" lon="5.09544">
        <ele>218.5</ele>
        <time>2016-09-06T12:31:43Z</time>
      </trkpt>
      <trkpt lat="47.28505" lon="5.09556">
        <ele>218.4</ele>
        <time>2016-09-06T12:31:49Z</time>
      </trkpt>
      <trkpt lat="47.28502" lon="5.09569">
        <ele>218.5</ele>
        <time>2016-09-06T12:31:56Z</time>
      </trkpt>
      <trkpt lat="47.285" lon="5.09583">
        <ele>218</ele>
        <time>2016-09-06T12:32:04Z</time>
      </trkpt>
      <trkpt lat="47.28495" lon="5.09597">
        <ele>217.4</ele>
        <time>2016-09-06T12:32:30Z</time>
      </trkpt>
      <trkpt lat="47.28492" lon="5.09609">
        <ele>217.5</ele>
        <time>2016-09-06T12:32:36Z</time>
      </trkpt>
      <trkpt lat="47.28487" lon="5.0962">
        <ele>217.3</ele>
        <time>2016-09-06T12:32:47Z</time>
      </trkpt>
      <trkpt lat="47.28482" lon="5.09634">
        <ele>217.3</ele>
        <time>2016-09-06T12:32:56Z</time>
      </trkpt>
      <trkpt lat="47.28478" lon="5.09646">
        <ele>217.1</ele>
        <time>2016-09-06T12:33:03Z</time>
      </trkpt>
      <trkpt lat="47.28472" lon="5.09659">
        <ele>217</ele>
        <time>2016-09-06T12:33:11Z</time>
      </trkpt>
      <trkpt lat="47.28466" lon="5.0967">
        <ele>217.1</ele>
        <time>2016-09-06T12:33:17Z</time>
      </trkpt>
      <trkpt lat="47.28461" lon="5.09681">
        <ele>217.1</ele>
        <time>2016-09-06T12:33:24Z</time>
      </trkpt>
      <trkpt lat="47.28456" lon="5.09692">
        <ele>217</ele>
        <time>2016-09-06T12:33:34Z</time>
      </trkpt>
      <trkpt lat="47.28451" lon="5.09705">
        <ele>217.2</ele>
        <time>2016-09-06T12:35:16Z</time>
      </trkpt>
      <trkpt lat="47.28445" lon="5.09715">
        <ele>217.1</ele>
        <time>2016-09-06T12:35:24Z</time>
      </trkpt>
      <trkpt lat="47.28437" lon="5.09725">
        <ele>217.4</ele>
        <time>2016-09-06T12:35:32Z</time>
      </trkpt>
      <trkpt lat="47.28431" lon="5.09735">
        <ele>217.3</ele>
        <time>2016-09-06T12:35:39Z</time>
      </trkpt>
      <trkpt lat="47.28424" lon="5.09746">
        <ele>217.4</ele>
        <time>2016-09-06T12:35:50Z</time>
      </trkpt>
      <trkpt lat="47.28416" lon="5.09753">
        <ele>217.5</ele>
        <time>2016-09-06T12:35:59Z</time>
      </trkpt>
      <trkpt lat="47.28408" lon="5.09761">
        <ele>217.4</ele>
        <time>2016-09-06T12:36:07Z</time>
      </trkpt>
      <trkpt lat="47.284" lon="5.09767">
        <ele>217.5</ele>
        <time>2016-09-06T12:36:14Z</time>
      </trkpt>
      <trkpt lat="47.28392" lon="5.09773">
        <ele>217.5</ele>
        <time>2016-09-06T12:36:21Z</time>
      </trkpt>
      <trkpt lat="47.28383" lon="5.09782">
        <ele>217.4</ele>
        <time>2016-09-06T12:36:29Z</time>
      </trkpt>
      <trkpt lat="47.28375" lon="5.09785">
        <ele>217.4</ele>
        <time>2016-09-06T12:36:37Z</time>
      </trkpt>
      <trkpt lat="47.28366" lon="5.09788">
        <ele>217.4</ele>
        <time>2016-09-06T12:36:53Z</time>
      </trkpt>
      <trkpt lat="47.28358" lon="5.09796">
        <ele>217.7</ele>
        <time>2016-09-06T12:37:01Z</time>
      </trkpt>
      <trkpt lat="47.28348" lon="5.09799">
        <ele>218</ele>
        <time>2016-09-06T12:37:09Z</time>
      </trkpt>
      <trkpt lat="47.28339" lon="5.09802">
        <ele>217.8</ele>
        <time>2016-09-06T12:37:16Z</time>
      </trkpt>
      <trkpt lat="47.2833" lon="5.09805">
        <ele>217.5</ele>
        <time>2016-09-06T12:37:24Z</time>
      </trkpt>
      <trkpt lat="47.28321" lon="5.09808">
        <ele>217.5</ele>
        <time>2016-09-06T12:37:32Z</time>
      </trkpt>
      <trkpt lat="47.28311" lon="5.09813">
        <ele>217.5</ele>
        <time>2016-09-06T12:37:40Z</time>
      </trkpt>
      <trkpt lat="47.28303" lon="5.09819">
        <ele>217.4</ele>
        <time>2016-09-06T12:37:47Z</time>
      </trkpt>
      <trkpt lat="47.28293" lon="5.09821">
        <ele>217.4</ele>
        <time>2016-09-06T12:37:55Z</time>
      </trkpt>
      <trkpt lat="47.28285" lon="5.09828">
        <ele>217.6</ele>
        <time>2016-09-06T12:38:02Z</time>
      </trkpt>
      <trkpt lat="47.28277" lon="5.09833">
        <ele>217.4</ele>
        <time>2016-09-06T12:38:09Z</time>
      </trkpt>
      <trkpt lat="47.28268" lon="5.09834">
        <ele>217.2</ele>
        <time>2016-09-06T12:38:16Z</time>
      </trkpt>
      <trkpt lat="47.28258" lon="5.09837">
        <ele>217.3</ele>
        <time>2016-09-06T12:38:24Z</time>
      </trkpt>
      <trkpt lat="47.28249" lon="5.0984">
        <ele>217.2</ele>
        <time>2016-09-06T12:38:32Z</time>
      </trkpt>
      <trkpt lat="47.28241" lon="5.09846">
        <ele>217.4</ele>
        <time>2016-09-06T12:38:40Z</time>
      </trkpt>
      <trkpt lat="47.28231" lon="5.0985">
        <ele>217.6</ele>
        <time>2016-09-06T12:38:48Z</time>
      </trkpt>
      <trkpt lat="47.28222" lon="5.09849">
        <ele>217.8</ele>
        <time>2016-09-06T12:38:55Z</time>
      </trkpt>
      <trkpt lat="47.28212" lon="5.09848">
        <ele>217.6</ele>
        <time>2016-09-06T12:39:03Z</time>
      </trkpt>
      <trkpt lat="47.28203" lon="5.09851">
        <ele>217.6</ele>
        <time>2016-09-06T12:39:10Z</time>
      </trkpt>
      <trkpt lat="47.28194" lon="5.09858">
        <ele>217.5</ele>
        <time>2016-09-06T12:39:19Z</time>
      </trkpt>
      <trkpt lat="47.28186" lon="5.09865">
        <ele>217.8</ele>
        <time>2016-09-06T12:39:28Z</time>
      </trkpt>
      <trkpt lat="47.28177" lon="5.09871">
        <ele>217.7</ele>
        <time>2016-09-06T12:39:35Z</time>
      </trkpt>
      <trkpt lat="47.28168" lon="5.09877">
        <ele>217.6</ele>
        <time>2016-09-06T12:39:42Z</time>
      </trkpt>
      <trkpt lat="47.2816" lon="5.09885">
        <ele>217.3</ele>
        <time>2016-09-06T12:39:49Z</time>
      </trkpt>
      <trkpt lat="47.28151" lon="5.09894">
        <ele>217.2</ele>
        <time>2016-09-06T12:39:57Z</time>
      </trkpt>
      <trkpt lat="47.28144" lon="5.09902">
        <ele>217.1</ele>
        <time>2016-09-06T12:40:05Z</time>
      </trkpt>
      <trkpt lat="47.28137" lon="5.09913">
        <ele>216.9</ele>
        <time>2016-09-06T12:40:13Z</time>
      </trkpt>
      <trkpt lat="47.2813" lon="5.09924">
        <ele>216.8</ele>
        <time>2016-09-06T12:40:20Z</time>
      </trkpt>
      <trkpt lat="47.28126" lon="5.09936">
        <ele>216.5</ele>
        <time>2016-09-06T12:40:28Z</time>
      </trkpt>
      <trkpt lat="47.28121" lon="5.09949">
        <ele>216.7</ele>
        <time>2016-09-06T12:40:41Z</time>
      </trkpt>
      <trkpt lat="47.28115" lon="5.0996">
        <ele>216.9</ele>
        <time>2016-09-06T12:40:48Z</time>
      </trkpt>
      <trkpt lat="47.2811" lon="5.09973">
        <ele>217</ele>
        <time>2016-09-06T12:40:56Z</time>
      </trkpt>
      <trkpt lat="47.28105" lon="5.09988">
        <ele>217</ele>
        <time>2016-09-06T12:41:04Z</time>
      </trkpt>
      <trkpt lat="47.281" lon="5.09999">
        <ele>217.1</ele>
        <time>2016-09-06T12:41:11Z</time>
      </trkpt>
      <trkpt lat="47.28095" lon="5.10011">
        <ele>217.1</ele>
        <time>2016-09-06T12:41:18Z</time>
      </trkpt>
      <trkpt lat="47.2809" lon="5.10022">
        <ele>217.1</ele>
        <time>2016-09-06T12:41:25Z</time>
      </trkpt>
      <trkpt lat="47.28086" lon="5.10034">
        <ele>216.8</ele>
        <time>2016-09-06T12:41:32Z</time>
      </trkpt>
      <trkpt lat="47.28081" lon="5.10046">
        <ele>216.6</ele>
        <time>2016-09-06T12:41:40Z</time>
      </trkpt>
      <trkpt lat="47.28074" lon="5.10055">
        <ele>216.7</ele>
        <time>2016-09-06T12:41:50Z</time>
      </trkpt>
      <trkpt lat="47.2807" lon="5.10067">
        <ele>216.6</ele>
        <time>2016-09-06T12:41:56Z</time>
      </trkpt>
      <trkpt lat="47.28065" lon="5.1008">
        <ele>216.8</ele>
        <time>2016-09-06T12:42:03Z</time>
      </trkpt>
      <trkpt lat="47.28059" lon="5.10091">
        <ele>216.7</ele>
        <time>2016-09-06T12:42:10Z</time>
      </trkpt>
      <trkpt lat="47.28054" lon="5.10102">
        <ele>216.8</ele>
        <time>2016-09-06T12:42:18Z</time>
      </trkpt>
      <trkpt lat="47.28047" lon="5.10111">
        <ele>217</ele>
        <time>2016-09-06T12:42:26Z</time>
      </trkpt>
      <trkpt lat="47.28041" lon="5.10122">
        <ele>216.9</ele>
        <time>2016-09-06T12:42:35Z</time>
      </trkpt>
      <trkpt lat="47.28034" lon="5.10132">
        <ele>217</ele>
        <time>2016-09-06T12:42:42Z</time>
      </trkpt>
      <trkpt lat="47.28028" lon="5.10143">
        <ele>217</ele>
        <time>2016-09-06T12:42:50Z</time>
      </trkpt>
      <trkpt lat="47.28021" lon="5.10152">
        <ele>216.9</ele>
        <time>2016-09-06T12:42:58Z</time>
      </trkpt>
      <trkpt lat="47.28017" lon="5.10166">
        <ele>216.7</ele>
        <time>2016-09-06T12:43:05Z</time>
      </trkpt>
      <trkpt lat="47.2801" lon="5.10177">
        <ele>216.6</ele>
        <time>2016-09-06T12:43:13Z</time>
      </trkpt>
      <trkpt lat="47.28005" lon="5.10187">
        <ele>216.8</ele>
        <time>2016-09-06T12:43:20Z</time>
      </trkpt>
      <trkpt lat="47.28" lon="5.102">
        <ele>216.8</ele>
        <time>2016-09-06T12:43:28Z</time>
      </trkpt>
      <trkpt lat="47.27994" lon="5.10211">
        <ele>217</ele>
        <time>2016-09-06T12:43:37Z</time>
      </trkpt>
      <trkpt lat="47.27988" lon="5.10221">
        <ele>216.7</ele>
        <time>2016-09-06T12:43:45Z</time>
      </trkpt>
      <trkpt lat="47.27982" lon="5.10232">
        <ele>216.9</ele>
        <time>2016-09-06T12:43:55Z</time>
      </trkpt>
      <trkpt lat="47.27974" lon="5.1024">
        <ele>216.8</ele>
        <time>2016-09-06T12:44:03Z</time>
      </trkpt>
      <trkpt lat="47.27967" lon="5.10248">
        <ele>216.9</ele>
        <time>2016-09-06T12:44:10Z</time>
      </trkpt>
      <trkpt lat="47.2796" lon="5.10258">
        <ele>217.1</ele>
        <time>2016-09-06T12:44:17Z</time>
      </trkpt>
      <trkpt lat="47.27953" lon="5.10268">
        <ele>217.2</ele>
        <time>2016-09-06T12:44:25Z</time>
      </trkpt>
      <trkpt lat="47.27947" lon="5.10279">
        <ele>217.3</ele>
        <time>2016-09-06T12:44:34Z</time>
      </trkpt>
      <trkpt lat="47.2794" lon="5.10288">
        <ele>217.4</ele>
        <time>2016-09-06T12:44:42Z</time>
      </trkpt>
      <trkpt lat="47.27935" lon="5.103">
        <ele>217.1</ele>
        <time>2016-09-06T12:44:49Z</time>
      </trkpt>
      <trkpt lat="47.27929" lon="5.10311">
        <ele>217</ele>
        <time>2016-09-06T12:44:56Z</time>
      </trkpt>
      <trkpt lat="47.27922" lon="5.1032">
        <ele>217</ele>
        <time>2016-09-06T12:45:03Z</time>
      </trkpt>
      <trkpt lat="47.27914" lon="5.10327">
        <ele>217</ele>
        <time>2016-09-06T12:45:11Z</time>
      </trkpt>
      <trkpt lat="47.27907" lon="5.10337">
        <ele>217.1</ele>
        <time>2016-09-06T12:45:21Z</time>
      </trkpt>
      <trkpt lat="47.27901" lon="5.10348">
        <ele>216.8</ele>
        <time>2016-09-06T12:45:30Z</time>
      </trkpt>
      <trkpt lat="47.27895" lon="5.1036">
        <ele>216.8</ele>
        <time>2016-09-06T12:45:38Z</time>
      </trkpt>
      <trkpt lat="47.27889" lon="5.1037">
        <ele>216.5</ele>
        <time>2016-09-06T12:45:46Z</time>
      </trkpt>
      <trkpt lat="47.27883" lon="5.10382">
        <ele>216.5</ele>
        <time>2016-09-06T12:45:54Z</time>
      </trkpt>
      <trkpt lat="47.27878" lon="5.10392">
        <ele>216.7</ele>
        <time>2016-09-06T12:46:03Z</time>
      </trkpt>
      <trkpt lat="47.27871" lon="5.10403">
        <ele>216.7</ele>
        <time>2016-09-06T12:46:14Z</time>
      </trkpt>
      <trkpt lat="47.27866" lon="5.10415">
        <ele>217</ele>
        <time>2016-09-06T12:46:19Z</time>
      </trkpt>
      <trkpt lat="47.27862" lon="5.10428">
        <ele>217</ele>
        <time>2016-09-06T12:46:27Z</time>
      </trkpt>
      <trkpt lat="47.27857" lon="5.10439">
        <ele>217.5</ele>
        <time>2016-09-06T12:46:34Z</time>
      </trkpt>
      <trkpt lat="47.27853" lon="5.10453">
        <ele>218.3</ele>
        <time>2016-09-06T12:46:44Z</time>
      </trkpt>
      <trkpt lat="47.2785" lon="5.10465">
        <ele>219.1</ele>
        <time>2016-09-06T12:46:52Z</time>
      </trkpt>
      <trkpt lat="47.27843" lon="5.10476">
        <ele>220.1</ele>
        <time>2016-09-06T12:51:38Z</time>
      </trkpt>
      <trkpt lat="47.27838" lon="5.10487">
        <ele>220.3</ele>
        <time>2016-09-06T12:51:44Z</time>
      </trkpt>
      <trkpt lat="47.27834" lon="5.105">
        <ele>219.6</ele>
        <time>2016-09-06T12:51:54Z</time>
      </trkpt>
      <trkpt lat="47.27828" lon="5.10511">
        <ele>219.5</ele>
        <time>2016-09-06T12:52:03Z</time>
      </trkpt>
      <trkpt lat="47.27821" lon="5.10521">
        <ele>219.4</ele>
        <time>2016-09-06T12:52:11Z</time>
      </trkpt>
      <trkpt lat="47.27814" lon="5.10532">
        <ele>219</ele>
        <time>2016-09-06T12:52:19Z</time>
      </trkpt>
      <trkpt lat="47.27809" lon="5.10543">
        <ele>219.2</ele>
        <time>2016-09-06T12:52:29Z</time>
      </trkpt>
      <trkpt lat="47.27803" lon="5.10554">
        <ele>219.4</ele>
        <time>2016-09-06T12:52:37Z</time>
      </trkpt>
      <trkpt lat="47.27797" lon="5.10565">
        <ele>219.2</ele>
        <time>2016-09-06T12:52:45Z</time>
      </trkpt>
      <trkpt lat="47.2779" lon="5.10575">
        <ele>219.2</ele>
        <time>2016-09-06T12:52:55Z</time>
      </trkpt>
      <trkpt lat="47.27782" lon="5.10583">
        <ele>219.2</ele>
        <time>2016-09-06T12:53:04Z</time>
      </trkpt>
      <trkpt lat="47.27774" lon="5.10592">
        <ele>219.2</ele>
        <time>2016-09-06T12:53:13Z</time>
      </trkpt>
      <trkpt lat="47.27767" lon="5.10603">
        <ele>218.8</ele>
        <time>2016-09-06T12:53:21Z</time>
      </trkpt>
      <trkpt lat="47.27759" lon="5.10611">
        <ele>218.3</ele>
        <time>2016-09-06T12:53:30Z</time>
      </trkpt>
      <trkpt lat="47.27752" lon="5.1062">
        <ele>217.8</ele>
        <time>2016-09-06T12:53:38Z</time>
      </trkpt>
      <trkpt lat="47.27745" lon="5.1063">
        <ele>217.8</ele>
        <time>2016-09-06T12:53:47Z</time>
      </trkpt>
      <trkpt lat="47.27739" lon="5.10641">
        <ele>217.9</ele>
        <time>2016-09-06T12:53:56Z</time>
      </trkpt>
      <trkpt lat="47.2773" lon="5.10651">
        <ele>217.4</ele>
        <time>2016-09-06T12:54:09Z</time>
      </trkpt>
      <trkpt lat="47.27723" lon="5.10662">
        <ele>217.2</ele>
        <time>2016-09-06T12:54:16Z</time>
      </trkpt>
      <trkpt lat="47.27716" lon="5.1067">
        <ele>217.3</ele>
        <time>2016-09-06T12:54:23Z</time>
      </trkpt>
      <trkpt lat="47.27711" lon="5.10683">
        <ele>216.9</ele>
        <time>2016-09-06T12:54:30Z</time>
      </trkpt>
      <trkpt lat="47.27709" lon="5.10698">
        <ele>216.2</ele>
        <time>2016-09-06T12:54:38Z</time>
      </trkpt>
      <trkpt lat="47.27711" lon="5.10713">
        <ele>215.7</ele>
        <time>2016-09-06T12:54:45Z</time>
      </trkpt>
      <trkpt lat="47.27712" lon="5.10727">
        <ele>215.7</ele>
        <time>2016-09-06T12:54:53Z</time>
      </trkpt>
      <trkpt lat="47.27709" lon="5.1074">
        <ele>215.5</ele>
        <time>2016-09-06T12:55:00Z</time>
      </trkpt>
      <trkpt lat="47.27707" lon="5.10753">
        <ele>216</ele>
        <time>2016-09-06T12:55:11Z</time>
      </trkpt>
      <trkpt lat="47.27702" lon="5.10766">
        <ele>215.9</ele>
        <time>2016-09-06T12:55:22Z</time>
      </trkpt>
      <trkpt lat="47.27697" lon="5.10779">
        <ele>215.9</ele>
        <time>2016-09-06T12:55:28Z</time>
      </trkpt>
      <trkpt lat="47.27694" lon="5.10792">
        <ele>215.7</ele>
        <time>2016-09-06T12:55:34Z</time>
      </trkpt>
      <trkpt lat="47.27692" lon="5.10806">
        <ele>215.5</ele>
        <time>2016-09-06T12:55:41Z</time>
      </trkpt>
      <trkpt lat="47.27687" lon="5.10817">
        <ele>216.2</ele>
        <time>2016-09-06T12:55:51Z</time>
      </trkpt>
      <trkpt lat="47.27685" lon="5.10832">
        <ele>216.2</ele>
        <time>2016-09-06T12:55:59Z</time>
      </trkpt>
      <trkpt lat="47.27682" lon="5.10846">
        <ele>216.4</ele>
        <time>2016-09-06T12:56:06Z</time>
      </trkpt>
      <trkpt lat="47.27678" lon="5.10858">
        <ele>216.1</ele>
        <time>2016-09-06T12:56:16Z</time>
      </trkpt>
      <trkpt lat="47.27675" lon="5.10872">
        <ele>216.3</ele>
        <time>2016-09-06T12:56:24Z</time>
      </trkpt>
      <trkpt lat="47.2767" lon="5.10886">
        <ele>215.9</ele>
        <time>2016-09-06T12:56:31Z</time>
      </trkpt>
      <trkpt lat="47.27665" lon="5.10898">
        <ele>215.8</ele>
        <time>2016-09-06T12:56:38Z</time>
      </trkpt>
      <trkpt lat="47.2766" lon="5.1091">
        <ele>215.8</ele>
        <time>2016-09-06T12:56:47Z</time>
      </trkpt>
      <trkpt lat="47.27656" lon="5.10924">
        <ele>216</ele>
        <time>2016-09-06T12:56:55Z</time>
      </trkpt>
      <trkpt lat="47.27653" lon="5.10936">
        <ele>216</ele>
        <time>2016-09-06T12:57:03Z</time>
      </trkpt>
      <trkpt lat="47.27647" lon="5.10947">
        <ele>215.6</ele>
        <time>2016-09-06T12:57:11Z</time>
      </trkpt>
      <trkpt lat="47.2764" lon="5.10956">
        <ele>215.3</ele>
        <time>2016-09-06T12:57:19Z</time>
      </trkpt>
      <trkpt lat="47.27636" lon="5.10969">
        <ele>215.4</ele>
        <time>2016-09-06T12:57:29Z</time>
      </trkpt>
      <trkpt lat="47.2763" lon="5.10981">
        <ele>215.3</ele>
        <time>2016-09-06T12:57:37Z</time>
      </trkpt>
      <trkpt lat="47.27626" lon="5.10992">
        <ele>215.5</ele>
        <time>2016-09-06T12:57:44Z</time>
      </trkpt>
      <trkpt lat="47.27618" lon="5.11002">
        <ele>215.8</ele>
        <time>2016-09-06T12:57:50Z</time>
      </trkpt>
      <trkpt lat="47.27612" lon="5.11012">
        <ele>215.6</ele>
        <time>2016-09-06T12:57:57Z</time>
      </trkpt>
      <trkpt lat="47.27607" lon="5.11024">
        <ele>215.7</ele>
        <time>2016-09-06T12:58:05Z</time>
      </trkpt>
      <trkpt lat="47.27605" lon="5.11039">
        <ele>215.5</ele>
        <time>2016-09-06T12:58:14Z</time>
      </trkpt>
      <trkpt lat="47.27597" lon="5.11045">
        <ele>215.2</ele>
        <time>2016-09-06T12:58:21Z</time>
      </trkpt>
      <trkpt lat="47.27589" lon="5.11053">
        <ele>215.2</ele>
        <time>2016-09-06T12:58:29Z</time>
      </trkpt>
      <trkpt lat="47.27588" lon="5.11068">
        <ele>215.5</ele>
        <time>2016-09-06T12:58:37Z</time>
      </trkpt>
      <trkpt lat="47.27586" lon="5.11082">
        <ele>215.4</ele>
        <time>2016-09-06T12:58:44Z</time>
      </trkpt>
      <trkpt lat="47.27587" lon="5.11096">
        <ele>215.2</ele>
        <time>2016-09-06T12:58:52Z</time>
      </trkpt>
      <trkpt lat="47.27581" lon="5.11107">
        <ele>215.2</ele>
        <time>2016-09-06T12:59:00Z</time>
      </trkpt>
      <trkpt lat="47.27575" lon="5.11117">
        <ele>215</ele>
        <time>2016-09-06T12:59:08Z</time>
      </trkpt>
      <trkpt lat="47.27569" lon="5.11129">
        <ele>214.9</ele>
        <time>2016-09-06T12:59:16Z</time>
      </trkpt>
      <trkpt lat="47.27563" lon="5.1114">
        <ele>214.6</ele>
        <time>2016-09-06T12:59:24Z</time>
      </trkpt>
      <trkpt lat="47.27558" lon="5.11153">
        <ele>214.3</ele>
        <time>2016-09-06T12:59:31Z</time>
      </trkpt>
      <trkpt lat="47.27552" lon="5.11165">
        <ele>214.4</ele>
        <time>2016-09-06T12:59:39Z</time>
      </trkpt>
      <trkpt lat="47.27547" lon="5.11177">
        <ele>214.7</ele>
        <time>2016-09-06T12:59:47Z</time>
      </trkpt>
      <trkpt lat="47.27543" lon="5.11189">
        <ele>215.6</ele>
        <time>2016-09-06T12:59:55Z</time>
      </trkpt>
      <trkpt lat="47.27538" lon="5.11201">
        <ele>216.2</ele>
        <time>2016-09-06T13:00:04Z</time>
      </trkpt>
      <trkpt lat="47.2753" lon="5.11208">
        <ele>216.3</ele>
        <time>2016-09-06T13:00:14Z</time>
      </trkpt>
      <trkpt lat="47.27522" lon="5.11216">
        <ele>216.2</ele>
        <time>2016-09-06T13:00:24Z</time>
      </trkpt>
      <trkpt lat="47.27518" lon="5.11228">
        <ele>216.1</ele>
        <time>2016-09-06T13:00:35Z</time>
      </trkpt>
      <trkpt lat="47.27512" lon="5.11238">
        <ele>215.8</ele>
        <time>2016-09-06T13:00:44Z</time>
      </trkpt>
      <trkpt lat="47.27506" lon="5.11249">
        <ele>215.8</ele>
        <time>2016-09-06T13:00:54Z</time>
      </trkpt>
      <trkpt lat="47.275" lon="5.11262">
        <ele>215.6</ele>
        <time>2016-09-06T13:01:12Z</time>
      </trkpt>
      <trkpt lat="47.27495" lon="5.11276">
        <ele>215.8</ele>
        <time>2016-09-06T13:01:19Z</time>
      </trkpt>
      <trkpt lat="47.2749" lon="5.11288">
        <ele>215.5</ele>
        <time>2016-09-06T13:01:32Z</time>
      </trkpt>
      <trkpt lat="47.2748" lon="5.11288">
        <ele>215.2</ele>
        <time>2016-09-06T13:01:39Z</time>
      </trkpt>
      <trkpt lat="47.27471" lon="5.11286">
        <ele>215.1</ele>
        <time>2016-09-06T13:01:48Z</time>
      </trkpt>
      <trkpt lat="47.27462" lon="5.11285">
        <ele>214.9</ele>
        <time>2016-09-06T13:01:59Z</time>
      </trkpt>
      <trkpt lat="47.27452" lon="5.11288">
        <ele>215</ele>
        <time>2016-09-06T13:02:09Z</time>
      </trkpt>
      <trkpt lat="47.27443" lon="5.11288">
        <ele>215.2</ele>
        <time>2016-09-06T13:02:14Z</time>
      </trkpt>
      <trkpt lat="47.27434" lon="5.11287">
        <ele>215.5</ele>
        <time>2016-09-06T13:02:19Z</time>
      </trkpt>
      <trkpt lat="47.27426" lon="5.11279">
        <ele>215.9</ele>
        <time>2016-09-06T13:02:31Z</time>
      </trkpt>
      <trkpt lat="47.27418" lon="5.11271">
        <ele>215.9</ele>
        <time>2016-09-06T13:02:40Z</time>
      </trkpt>
      <trkpt lat="47.2741" lon="5.11263">
        <ele>216.3</ele>
        <time>2016-09-06T13:02:50Z</time>
      </trkpt>
      <trkpt lat="47.27401" lon="5.11256">
        <ele>216.3</ele>
        <time>2016-09-06T13:03:02Z</time>
      </trkpt>
      <trkpt lat="47.27393" lon="5.11249">
        <ele>216.3</ele>
        <time>2016-09-06T13:03:12Z</time>
      </trkpt>
      <trkpt lat="47.27384" lon="5.11243">
        <ele>216.2</ele>
        <time>2016-09-06T13:03:20Z</time>
      </trkpt>
      <trkpt lat="47.27375" lon="5.11237">
        <ele>216.3</ele>
        <time>2016-09-06T13:03:29Z</time>
      </trkpt>
      <trkpt lat="47.27365" lon="5.11237">
        <ele>216</ele>
        <time>2016-09-06T13:03:37Z</time>
      </trkpt>
      <trkpt lat="47.27356" lon="5.11238">
        <ele>215.9</ele>
        <time>2016-09-06T13:03:45Z</time>
      </trkpt>
      <trkpt lat="47.27346" lon="5.11237">
        <ele>215.7</ele>
        <time>2016-09-06T13:03:52Z</time>
      </trkpt>
      <trkpt lat="47.27337" lon="5.11243">
        <ele>215.7</ele>
        <time>2016-09-06T13:04:00Z</time>
      </trkpt>
      <trkpt lat="47.27328" lon="5.11248">
        <ele>215.5</ele>
        <time>2016-09-06T13:04:08Z</time>
      </trkpt>
      <trkpt lat="47.27322" lon="5.11258">
        <ele>215.4</ele>
        <time>2016-09-06T13:04:16Z</time>
      </trkpt>
      <trkpt lat="47.27315" lon="5.11269">
        <ele>215.5</ele>
        <time>2016-09-06T13:04:23Z</time>
      </trkpt>
      <trkpt lat="47.27308" lon="5.11279">
        <ele>215.5</ele>
        <time>2016-09-06T13:04:30Z</time>
      </trkpt>
      <trkpt lat="47.273" lon="5.11286">
        <ele>215.7</ele>
        <time>2016-09-06T13:04:46Z</time>
      </trkpt>
      <trkpt lat="47.27294" lon="5.11296">
        <ele>215.5</ele>
        <time>2016-09-06T13:04:55Z</time>
      </trkpt>
      <trkpt lat="47.27287" lon="5.11307">
        <ele>215.7</ele>
        <time>2016-09-06T13:05:03Z</time>
      </trkpt>
      <trkpt lat="47.27281" lon="5.11316">
        <ele>215.8</ele>
        <time>2016-09-06T13:05:10Z</time>
      </trkpt>
      <trkpt lat="47.27275" lon="5.11328">
        <ele>215.6</ele>
        <time>2016-09-06T13:05:18Z</time>
      </trkpt>
      <trkpt lat="47.27269" lon="5.11338">
        <ele>215.3</ele>
        <time>2016-09-06T13:05:28Z</time>
      </trkpt>
      <trkpt lat="47.27263" lon="5.11349">
        <ele>215.4</ele>
        <time>2016-09-06T13:05:37Z</time>
      </trkpt>
      <trkpt lat="47.27255" lon="5.11358">
        <ele>215.4</ele>
        <time>2016-09-06T13:05:45Z</time>
      </trkpt>
      <trkpt lat="47.27248" lon="5.11366">
        <ele>215.6</ele>
        <time>2016-09-06T13:05:52Z</time>
      </trkpt>
      <trkpt lat="47.2724" lon="5.11376">
        <ele>215.6</ele>
        <time>2016-09-06T13:06:00Z</time>
      </trkpt>
      <trkpt lat="47.27232" lon="5.11384">
        <ele>215.6</ele>
        <time>2016-09-06T13:06:07Z</time>
      </trkpt>
      <trkpt lat="47.27225" lon="5.11393">
        <ele>215.3</ele>
        <time>2016-09-06T13:06:14Z</time>
      </trkpt>
      <trkpt lat="47.27217" lon="5.11399">
        <ele>215.3</ele>
        <time>2016-09-06T13:06:22Z</time>
      </trkpt>
      <trkpt lat="47.27209" lon="5.11408">
        <ele>215.1</ele>
        <time>2016-09-06T13:06:31Z</time>
      </trkpt>
      <trkpt lat="47.27204" lon="5.11419">
        <ele>215.1</ele>
        <time>2016-09-06T13:06:38Z</time>
      </trkpt>
      <trkpt lat="47.27197" lon="5.11428">
        <ele>215.4</ele>
        <time>2016-09-06T13:06:46Z</time>
      </trkpt>
      <trkpt lat="47.2719" lon="5.11436">
        <ele>215</ele>
        <time>2016-09-06T13:06:53Z</time>
      </trkpt>
      <trkpt lat="47.27183" lon="5.11446">
        <ele>215.3</ele>
        <time>2016-09-06T13:07:01Z</time>
      </trkpt>
      <trkpt lat="47.27174" lon="5.11453">
        <ele>215</ele>
        <time>2016-09-06T13:07:09Z</time>
      </trkpt>
      <trkpt lat="47.27164" lon="5.11455">
        <ele>215</ele>
        <time>2016-09-06T13:07:16Z</time>
      </trkpt>
      <trkpt lat="47.27154" lon="5.11459">
        <ele>215.2</ele>
        <time>2016-09-06T13:07:25Z</time>
      </trkpt>
      <trkpt lat="47.27145" lon="5.11459">
        <ele>215</ele>
        <time>2016-09-06T13:07:32Z</time>
      </trkpt>
      <trkpt lat="47.27138" lon="5.11468">
        <ele>215.1</ele>
        <time>2016-09-06T13:07:41Z</time>
      </trkpt>
      <trkpt lat="47.27128" lon="5.11473">
        <ele>215.3</ele>
        <time>2016-09-06T13:07:53Z</time>
      </trkpt>
      <trkpt lat="47.27119" lon="5.11475">
        <ele>215.2</ele>
        <time>2016-09-06T13:08:01Z</time>
      </trkpt>
      <trkpt lat="47.27109" lon="5.11473">
        <ele>215.2</ele>
        <time>2016-09-06T13:08:11Z</time>
      </trkpt>
      <trkpt lat="47.271" lon="5.11476">
        <ele>215.4</ele>
        <time>2016-09-06T13:08:20Z</time>
      </trkpt>
      <trkpt lat="47.27091" lon="5.11476">
        <ele>215.5</ele>
        <time>2016-09-06T13:08:28Z</time>
      </trkpt>
      <trkpt lat="47.27082" lon="5.11476">
        <ele>215.4</ele>
        <time>2016-09-06T13:08:37Z</time>
      </trkpt>
      <trkpt lat="47.27071" lon="5.11475">
        <ele>215.4</ele>
        <time>2016-09-06T13:08:44Z</time>
      </trkpt>
      <trkpt lat="47.27062" lon="5.11477">
        <ele>215.4</ele>
        <time>2016-09-06T13:08:51Z</time>
      </trkpt>
      <trkpt lat="47.27053" lon="5.1148">
        <ele>215.3</ele>
        <time>2016-09-06T13:08:59Z</time>
      </trkpt>
      <trkpt lat="47.27044" lon="5.11483">
        <ele>215.4</ele>
        <time>2016-09-06T13:09:14Z</time>
      </trkpt>
      <trkpt lat="47.27034" lon="5.11489">
        <ele>215.4</ele>
        <time>2016-09-06T13:09:22Z</time>
      </trkpt>
      <trkpt lat="47.27025" lon="5.11492">
        <ele>215.5</ele>
        <time>2016-09-06T13:09:30Z</time>
      </trkpt>
      <trkpt lat="47.27014" lon="5.1149">
        <ele>215.6</ele>
        <time>2016-09-06T13:09:42Z</time>
      </trkpt>
      <trkpt lat="47.27005" lon="5.11491">
        <ele>215.1</ele>
        <time>2016-09-06T13:09:49Z</time>
      </trkpt>
      <trkpt lat="47.26995" lon="5.11494">
        <ele>215</ele>
        <time>2016-09-06T13:09:57Z</time>
      </trkpt>
      <trkpt lat="47.26985" lon="5.11497">
        <ele>214.9</ele>
        <time>2016-09-06T13:10:04Z</time>
      </trkpt>
      <trkpt lat="47.26976" lon="5.115">
        <ele>215</ele>
        <time>2016-09-06T13:10:10Z</time>
      </trkpt>
      <trkpt lat="47.26967" lon="5.11506">
        <ele>215</ele>
        <time>2016-09-06T13:10:19Z</time>
      </trkpt>
      <trkpt lat="47.26959" lon="5.11513">
        <ele>214.9</ele>
        <time>2016-09-06T13:10:28Z</time>
      </trkpt>
      <trkpt lat="47.2695" lon="5.1152">
        <ele>215</ele>
        <time>2016-09-06T13:10:37Z</time>
      </trkpt>
      <trkpt lat="47.26941" lon="5.11527">
        <ele>214.8</ele>
        <time>2016-09-06T13:10:44Z</time>
      </trkpt>
      <trkpt lat="47.26931" lon="5.1153">
        <ele>214.9</ele>
        <time>2016-09-06T13:10:52Z</time>
      </trkpt>
      <trkpt lat="47.26923" lon="5.11538">
        <ele>214.8</ele>
        <time>2016-09-06T13:11:01Z</time>
      </trkpt>
      <trkpt lat="47.26916" lon="5.11548">
        <ele>214.7</ele>
        <time>2016-09-06T13:11:09Z</time>
      </trkpt>
      <trkpt lat="47.26909" lon="5.11558">
        <ele>214.7</ele>
        <time>2016-09-06T13:11:18Z</time>
      </trkpt>
      <trkpt lat="47.26902" lon="5.11567">
        <ele>214.7</ele>
        <time>2016-09-06T13:11:26Z</time>
      </trkpt>
      <trkpt lat="47.26895" lon="5.11575">
        <ele>214.4</ele>
        <time>2016-09-06T13:11:33Z</time>
      </trkpt>
      <trkpt lat="47.26886" lon="5.11582">
        <ele>214.4</ele>
        <time>2016-09-06T13:11:40Z</time>
      </trkpt>
      <trkpt lat="47.2688" lon="5.11592">
        <ele>214.4</ele>
        <time>2016-09-06T13:11:47Z</time>
      </trkpt>
      <trkpt lat="47.26872" lon="5.116">
        <ele>214.6</ele>
        <time>2016-09-06T13:11:55Z</time>
      </trkpt>
      <trkpt lat="47.26865" lon="5.11608">
        <ele>214.7</ele>
        <time>2016-09-06T13:12:04Z</time>
      </trkpt>
      <trkpt lat="47.26856" lon="5.11614">
        <ele>214.7</ele>
        <time>2016-09-06T13:12:13Z</time>
      </trkpt>
      <trkpt lat="47.26848" lon="5.11621">
        <ele>214.9</ele>
        <time>2016-09-06T13:12:21Z</time>
      </trkpt>
      <trkpt lat="47.26841" lon="5.11631">
        <ele>214.7</ele>
        <time>2016-09-06T13:12:29Z</time>
      </trkpt>
      <trkpt lat="47.26834" lon="5.1164">
        <ele>214.9</ele>
        <time>2016-09-06T13:12:37Z</time>
      </trkpt>
      <trkpt lat="47.26827" lon="5.11649">
        <ele>214.8</ele>
        <time>2016-09-06T13:12:45Z</time>
      </trkpt>
      <trkpt lat="47.26819" lon="5.11656">
        <ele>214.7</ele>
        <time>2016-09-06T13:12:54Z</time>
      </trkpt>
      <trkpt lat="47.2681" lon="5.1166">
        <ele>215.5</ele>
        <time>2016-09-06T13:13:02Z</time>
      </trkpt>
      <trkpt lat="47.26802" lon="5.11668">
        <ele>215</ele>
        <time>2016-09-06T13:13:11Z</time>
      </trkpt>
      <trkpt lat="47.26793" lon="5.11675">
        <ele>215.5</ele>
        <time>2016-09-06T13:13:22Z</time>
      </trkpt>
      <trkpt lat="47.26785" lon="5.1168">
        <ele>215.1</ele>
        <time>2016-09-06T13:13:30Z</time>
      </trkpt>
      <trkpt lat="47.26776" lon="5.11687">
        <ele>215.1</ele>
        <time>2016-09-06T13:13:40Z</time>
      </trkpt>
      <trkpt lat="47.26768" lon="5.11692">
        <ele>215.1</ele>
        <time>2016-09-06T13:13:50Z</time>
      </trkpt>
      <trkpt lat="47.2676" lon="5.11698">
        <ele>215.1</ele>
        <time>2016-09-06T13:13:58Z</time>
      </trkpt>
      <trkpt lat="47.26752" lon="5.11705">
        <ele>214.7</ele>
        <time>2016-09-06T13:14:06Z</time>
      </trkpt>
      <trkpt lat="47.26743" lon="5.11711">
        <ele>214.9</ele>
        <time>2016-09-06T13:14:16Z</time>
      </trkpt>
      <trkpt lat="47.26734" lon="5.11719">
        <ele>215.3</ele>
        <time>2016-09-06T13:14:26Z</time>
      </trkpt>
      <trkpt lat="47.26727" lon="5.11728">
        <ele>215.1</ele>
        <time>2016-09-06T13:14:34Z</time>
      </trkpt>
      <trkpt lat="47.26717" lon="5.11733">
        <ele>215.4</ele>
        <time>2016-09-06T13:14:42Z</time>
      </trkpt>
      <trkpt lat="47.26709" lon="5.11738">
        <ele>215.2</ele>
        <time>2016-09-06T13:14:49Z</time>
      </trkpt>
      <trkpt lat="47.26701" lon="5.11747">
        <ele>215.3</ele>
        <time>2016-09-06T13:14:57Z</time>
      </trkpt>
      <trkpt lat="47.26693" lon="5.11753">
        <ele>215.4</ele>
        <time>2016-09-06T13:15:06Z</time>
      </trkpt>
      <trkpt lat="47.26684" lon="5.11755">
        <ele>215.5</ele>
        <time>2016-09-06T13:15:13Z</time>
      </trkpt>
      <trkpt lat="47.26674" lon="5.11761">
        <ele>215.7</ele>
        <time>2016-09-06T13:15:21Z</time>
      </trkpt>
      <trkpt lat="47.26665" lon="5.11765">
        <ele>215.4</ele>
        <time>2016-09-06T13:15:29Z</time>
      </trkpt>
      <trkpt lat="47.26657" lon="5.11772">
        <ele>215.2</ele>
        <time>2016-09-06T13:15:39Z</time>
      </trkpt>
      <trkpt lat="47.26649" lon="5.11779">
        <ele>215.3</ele>
        <time>2016-09-06T13:15:51Z</time>
      </trkpt>
      <trkpt lat="47.26644" lon="5.11767">
        <ele>216</ele>
        <time>2016-09-06T13:16:02Z</time>
      </trkpt>
      <trkpt lat="47.26639" lon="5.11754">
        <ele>216.1</ele>
        <time>2016-09-06T13:17:10Z</time>
      </trkpt>
      <trkpt lat="47.26636" lon="5.11742">
        <ele>216</ele>
        <time>2016-09-06T13:19:04Z</time>
      </trkpt>
      <trkpt lat="47.26637" lon="5.11728">
        <ele>215.3</ele>
        <time>2016-09-06T13:19:15Z</time>
      </trkpt>
      <trkpt lat="47.26646" lon="5.11725">
        <ele>214.3</ele>
        <time>2016-09-06T13:19:24Z</time>
      </trkpt>
      <trkpt lat="47.26655" lon="5.11725">
        <ele>214.1</ele>
        <time>2016-09-06T13:19:32Z</time>
      </trkpt>
      <trkpt lat="47.26664" lon="5.11721">
        <ele>214.4</ele>
        <time>2016-09-06T13:19:45Z</time>
      </trkpt>
      <trkpt lat="47.26674" lon="5.11717">
        <ele>214.7</ele>
        <time>2016-09-06T13:19:54Z</time>
      </trkpt>
      <trkpt lat="47.26682" lon="5.1171">
        <ele>214.7</ele>
        <time>2016-09-06T13:20:04Z</time>
      </trkpt>
      <trkpt lat="47.26691" lon="5.11704">
        <ele>214.5</ele>
        <time>2016-09-06T13:20:13Z</time>
      </trkpt>
      <trkpt lat="47.26699" lon="5.11697">
        <ele>214.3</ele>
        <time>2016-09-06T13:20:22Z</time>
      </trkpt>
      <trkpt lat="47.26706" lon="5.11687">
        <ele>214.5</ele>
        <time>2016-09-06T13:20:30Z</time>
      </trkpt>
      <trkpt lat="47.26714" lon="5.11681">
        <ele>214.5</ele>
        <time>2016-09-06T13:20:38Z</time>
      </trkpt>
      <trkpt lat="47.26723" lon="5.11678">
        <ele>214.8</ele>
        <time>2016-09-06T13:20:48Z</time>
      </trkpt>
      <trkpt lat="47.26731" lon="5.11672">
        <ele>215</ele>
        <time>2016-09-06T13:20:56Z</time>
      </trkpt>
      <trkpt lat="47.2674" lon="5.11664">
        <ele>215.1</ele>
        <time>2016-09-06T13:21:10Z</time>
      </trkpt>
      <trkpt lat="47.26748" lon="5.11659">
        <ele>215.4</ele>
        <time>2016-09-06T13:21:17Z</time>
      </trkpt>
      <trkpt lat="47.26756" lon="5.11652">
        <ele>215.3</ele>
        <time>2016-09-06T13:21:24Z</time>
      </trkpt>
      <trkpt lat="47.26765" lon="5.11644">
        <ele>215.2</ele>
        <time>2016-09-06T13:21:32Z</time>
      </trkpt>
      <trkpt lat="47.26773" lon="5.11637">
        <ele>215.5</ele>
        <time>2016-09-06T13:21:40Z</time>
      </trkpt>
      <trkpt lat="47.26782" lon="5.11631">
        <ele>215.4</ele>
        <time>2016-09-06T13:21:48Z</time>
      </trkpt>
      <trkpt lat="47.2679" lon="5.11626">
        <ele>215.5</ele>
        <time>2016-09-06T13:21:56Z</time>
      </trkpt>
      <trkpt lat="47.26799" lon="5.11619">
        <ele>215.7</ele>
        <time>2016-09-06T13:22:04Z</time>
      </trkpt>
      <trkpt lat="47.26806" lon="5.11611">
        <ele>215.7</ele>
        <time>2016-09-06T13:22:11Z</time>
      </trkpt>
      <trkpt lat="47.26814" lon="5.11605">
        <ele>215.4</ele>
        <time>2016-09-06T13:22:18Z</time>
      </trkpt>
      <trkpt lat="47.26822" lon="5.11598">
        <ele>215.1</ele>
        <time>2016-09-06T13:22:26Z</time>
      </trkpt>
      <trkpt lat="47.2683" lon="5.11591">
        <ele>215.2</ele>
        <time>2016-09-06T13:22:33Z</time>
      </trkpt>
      <trkpt lat="47.26837" lon="5.11581">
        <ele>215.5</ele>
        <time>2016-09-06T13:22:41Z</time>
      </trkpt>
      <trkpt lat="47.26844" lon="5.11572">
        <ele>214.8</ele>
        <time>2016-09-06T13:23:00Z</time>
      </trkpt>
      <trkpt lat="47.26852" lon="5.11564">
        <ele>214.8</ele>
        <time>2016-09-06T13:23:10Z</time>
      </trkpt>
      <trkpt lat="47.2686" lon="5.11557">
        <ele>214.8</ele>
        <time>2016-09-06T13:23:19Z</time>
      </trkpt>
      <trkpt lat="47.26869" lon="5.11552">
        <ele>214.8</ele>
        <time>2016-09-06T13:23:27Z</time>
      </trkpt>
      <trkpt lat="47.26878" lon="5.11544">
        <ele>215</ele>
        <time>2016-09-06T13:23:36Z</time>
      </trkpt>
      <trkpt lat="47.26885" lon="5.11536">
        <ele>214.7</ele>
        <time>2016-09-06T13:23:44Z</time>
      </trkpt>
      <trkpt lat="47.26893" lon="5.11528">
        <ele>214.7</ele>
        <time>2016-09-06T13:23:52Z</time>
      </trkpt>
      <trkpt lat="47.26901" lon="5.11522">
        <ele>214.7</ele>
        <time>2016-09-06T13:24:00Z</time>
      </trkpt>
      <trkpt lat="47.26908" lon="5.11514">
        <ele>214.7</ele>
        <time>2016-09-06T13:24:10Z</time>
      </trkpt>
      <trkpt lat="47.26917" lon="5.11509">
        <ele>214.8</ele>
        <time>2016-09-06T13:24:17Z</time>
      </trkpt>
      <trkpt lat="47.26926" lon="5.11505">
        <ele>215.4</ele>
        <time>2016-09-06T13:24:37Z</time>
      </trkpt>
      <trkpt lat="47.26935" lon="5.115">
        <ele>215.4</ele>
        <time>2016-09-06T13:24:47Z</time>
      </trkpt>
      <trkpt lat="47.26945" lon="5.11499">
        <ele>215.8</ele>
        <time>2016-09-06T13:24:56Z</time>
      </trkpt>
      <trkpt lat="47.26954" lon="5.11491">
        <ele>215.4</ele>
        <time>2016-09-06T13:25:03Z</time>
      </trkpt>
      <trkpt lat="47.26962" lon="5.11483">
        <ele>215.7</ele>
        <time>2016-09-06T13:25:10Z</time>
      </trkpt>
      <trkpt lat="47.26969" lon="5.11474">
        <ele>216.3</ele>
        <time>2016-09-06T13:25:19Z</time>
      </trkpt>
      <trkpt lat="47.26976" lon="5.11465">
        <ele>216.4</ele>
        <time>2016-09-06T13:25:29Z</time>
      </trkpt>
      <trkpt lat="47.26986" lon="5.11461">
        <ele>216.3</ele>
        <time>2016-09-06T13:25:37Z</time>
      </trkpt>
      <trkpt lat="47.26994" lon="5.11455">
        <ele>216.4</ele>
        <time>2016-09-06T13:25:43Z</time>
      </trkpt>
      <trkpt lat="47.27003" lon="5.11448">
        <ele>216.6</ele>
        <time>2016-09-06T13:25:54Z</time>
      </trkpt>
      <trkpt lat="47.27012" lon="5.11446">
        <ele>216.5</ele>
        <time>2016-09-06T13:26:01Z</time>
      </trkpt>
      <trkpt lat="47.2702" lon="5.11441">
        <ele>216.6</ele>
        <time>2016-09-06T13:26:09Z</time>
      </trkpt>
      <trkpt lat="47.27029" lon="5.11435">
        <ele>216.3</ele>
        <time>2016-09-06T13:26:17Z</time>
      </trkpt>
      <trkpt lat="47.27038" lon="5.11431">
        <ele>216.2</ele>
        <time>2016-09-06T13:26:24Z</time>
      </trkpt>
      <trkpt lat="47.27047" lon="5.1143">
        <ele>216.4</ele>
        <time>2016-09-06T13:26:31Z</time>
      </trkpt>
      <trkpt lat="47.27056" lon="5.11434">
        <ele>216.4</ele>
        <time>2016-09-06T13:26:38Z</time>
      </trkpt>
      <trkpt lat="47.27065" lon="5.1143">
        <ele>215.7</ele>
        <time>2016-09-06T13:26:56Z</time>
      </trkpt>
      <trkpt lat="47.27074" lon="5.11428">
        <ele>216.1</ele>
        <time>2016-09-06T13:27:43Z</time>
      </trkpt>
      <trkpt lat="47.27082" lon="5.11434">
        <ele>216.1</ele>
        <time>2016-09-06T13:27:52Z</time>
      </trkpt>
      <trkpt lat="47.27092" lon="5.11438">
        <ele>215.9</ele>
        <time>2016-09-06T13:28:00Z</time>
      </trkpt>
      <trkpt lat="47.27101" lon="5.11435">
        <ele>215.9</ele>
        <time>2016-09-06T13:28:08Z</time>
      </trkpt>
      <trkpt lat="47.27109" lon="5.11428">
        <ele>216.3</ele>
        <time>2016-09-06T13:28:17Z</time>
      </trkpt>
      <trkpt lat="47.27118" lon="5.11425">
        <ele>216.1</ele>
        <time>2016-09-06T13:28:25Z</time>
      </trkpt>
      <trkpt lat="47.27125" lon="5.11417">
        <ele>216.3</ele>
        <time>2016-09-06T13:28:35Z</time>
      </trkpt>
      <trkpt lat="47.27133" lon="5.11409">
        <ele>216.5</ele>
        <time>2016-09-06T13:28:44Z</time>
      </trkpt>
      <trkpt lat="47.27141" lon="5.11399">
        <ele>215.8</ele>
        <time>2016-09-06T13:28:54Z</time>
      </trkpt>
      <trkpt lat="47.27149" lon="5.11393">
        <ele>216</ele>
        <time>2016-09-06T13:29:03Z</time>
      </trkpt>
      <trkpt lat="47.27159" lon="5.11391">
        <ele>216.1</ele>
        <time>2016-09-06T13:29:11Z</time>
      </trkpt>
      <trkpt lat="47.27168" lon="5.11386">
        <ele>216.6</ele>
        <time>2016-09-06T13:29:21Z</time>
      </trkpt>
      <trkpt lat="47.27178" lon="5.11386">
        <ele>216.3</ele>
        <time>2016-09-06T13:29:28Z</time>
      </trkpt>
      <trkpt lat="47.27186" lon="5.11379">
        <ele>217.1</ele>
        <time>2016-09-06T13:31:20Z</time>
      </trkpt>
      <trkpt lat="47.27195" lon="5.11374">
        <ele>216.8</ele>
        <time>2016-09-06T13:31:30Z</time>
      </trkpt>
      <trkpt lat="47.27203" lon="5.11366">
        <ele>216.7</ele>
        <time>2016-09-06T13:31:40Z</time>
      </trkpt>
      <trkpt lat="47.2721" lon="5.11357">
        <ele>216.6</ele>
        <time>2016-09-06T13:31:48Z</time>
      </trkpt>
      <trkpt lat="47.27216" lon="5.11346">
        <ele>217</ele>
        <time>2016-09-06T13:31:58Z</time>
      </trkpt>
      <trkpt lat="47.27224" lon="5.11337">
        <ele>216.9</ele>
        <time>2016-09-06T13:32:06Z</time>
      </trkpt>
      <trkpt lat="47.27231" lon="5.11328">
        <ele>217</ele>
        <time>2016-09-06T13:32:13Z</time>
      </trkpt>
      <trkpt lat="47.27238" lon="5.11318">
        <ele>217.1</ele>
        <time>2016-09-06T13:32:20Z</time>
      </trkpt>
      <trkpt lat="47.27246" lon="5.1131">
        <ele>217.1</ele>
        <time>2016-09-06T13:32:29Z</time>
      </trkpt>
      <trkpt lat="47.27252" lon="5.11301">
        <ele>217.2</ele>
        <time>2016-09-06T13:32:36Z</time>
      </trkpt>
      <trkpt lat="47.27259" lon="5.11291">
        <ele>217.3</ele>
        <time>2016-09-06T13:32:44Z</time>
      </trkpt>
      <trkpt lat="47.27267" lon="5.11282">
        <ele>217.4</ele>
        <time>2016-09-06T13:32:53Z</time>
      </trkpt>
      <trkpt lat="47.27274" lon="5.11273">
        <ele>217.5</ele>
        <time>2016-09-06T13:33:00Z</time>
      </trkpt>
      <trkpt lat="47.2728" lon="5.11263">
        <ele>217.2</ele>
        <time>2016-09-06T13:33:08Z</time>
      </trkpt>
      <trkpt lat="47.27287" lon="5.11253">
        <ele>217.4</ele>
        <time>2016-09-06T13:33:16Z</time>
      </trkpt>
      <trkpt lat="47.27293" lon="5.11242">
        <ele>217.5</ele>
        <time>2016-09-06T13:33:23Z</time>
      </trkpt>
      <trkpt lat="47.27299" lon="5.11231">
        <ele>217.2</ele>
        <time>2016-09-06T13:33:32Z</time>
      </trkpt>
      <trkpt lat="47.27306" lon="5.11221">
        <ele>217.6</ele>
        <time>2016-09-06T13:33:41Z</time>
      </trkpt>
      <trkpt lat="47.27313" lon="5.11213">
        <ele>217.6</ele>
        <time>2016-09-06T13:33:49Z</time>
      </trkpt>
      <trkpt lat="47.27321" lon="5.11204">
        <ele>217.4</ele>
        <time>2016-09-06T13:33:56Z</time>
      </trkpt>
      <trkpt lat="47.27327" lon="5.11195">
        <ele>217.3</ele>
        <time>2016-09-06T13:34:03Z</time>
      </trkpt>
      <trkpt lat="47.27334" lon="5.11186">
        <ele>217.4</ele>
        <time>2016-09-06T13:34:10Z</time>
      </trkpt>
      <trkpt lat="47.2734" lon="5.11175">
        <ele>217.4</ele>
        <time>2016-09-06T13:34:18Z</time>
      </trkpt>
      <trkpt lat="47.27346" lon="5.11164">
        <ele>217.9</ele>
        <time>2016-09-06T13:34:26Z</time>
      </trkpt>
      <trkpt lat="47.27352" lon="5.11153">
        <ele>217.9</ele>
        <time>2016-09-06T13:34:34Z</time>
      </trkpt>
      <trkpt lat="47.27359" lon="5.11144">
        <ele>217.8</ele>
        <time>2016-09-06T13:34:42Z</time>
      </trkpt>
      <trkpt lat="47.27365" lon="5.11133">
        <ele>217.7</ele>
        <time>2016-09-06T13:34:51Z</time>
      </trkpt>
      <trkpt lat="47.27371" lon="5.11122">
        <ele>217.2</ele>
        <time>2016-09-06T13:35:00Z</time>
      </trkpt>
      <trkpt lat="47.27378" lon="5.11111">
        <ele>217.3</ele>
        <time>2016-09-06T13:35:10Z</time>
      </trkpt>
      <trkpt lat="47.27385" lon="5.11102">
        <ele>216.8</ele>
        <time>2016-09-06T13:35:18Z</time>
      </trkpt>
      <trkpt lat="47.27392" lon="5.11094">
        <ele>217</ele>
        <time>2016-09-06T13:35:24Z</time>
      </trkpt>
      <trkpt lat="47.274" lon="5.11084">
        <ele>216.9</ele>
        <time>2016-09-06T13:35:32Z</time>
      </trkpt>
      <trkpt lat="47.27407" lon="5.11073">
        <ele>217</ele>
        <time>2016-09-06T13:35:39Z</time>
      </trkpt>
      <trkpt lat="47.27413" lon="5.11062">
        <ele>216.9</ele>
        <time>2016-09-06T13:35:46Z</time>
      </trkpt>
      <trkpt lat="47.27418" lon="5.11051">
        <ele>217.6</ele>
        <time>2016-09-06T13:35:55Z</time>
      </trkpt>
      <trkpt lat="47.27426" lon="5.11044">
        <ele>217.6</ele>
        <time>2016-09-06T13:36:08Z</time>
      </trkpt>
      <trkpt lat="47.27433" lon="5.11035">
        <ele>218.1</ele>
        <time>2016-09-06T13:36:16Z</time>
      </trkpt>
      <trkpt lat="47.27441" lon="5.11027">
        <ele>217.9</ele>
        <time>2016-09-06T13:36:24Z</time>
      </trkpt>
      <trkpt lat="47.27448" lon="5.11017">
        <ele>217.7</ele>
        <time>2016-09-06T13:36:31Z</time>
      </trkpt>
      <trkpt lat="47.27456" lon="5.11008">
        <ele>217.9</ele>
        <time>2016-09-06T13:36:39Z</time>
      </trkpt>
      <trkpt lat="47.27464" lon="5.11">
        <ele>218.2</ele>
        <time>2016-09-06T13:36:48Z</time>
      </trkpt>
      <trkpt lat="47.27471" lon="5.10989">
        <ele>218.4</ele>
        <time>2016-09-06T13:36:57Z</time>
      </trkpt>
      <trkpt lat="47.27478" lon="5.10981">
        <ele>218.4</ele>
        <time>2016-09-06T13:37:05Z</time>
      </trkpt>
      <trkpt lat="47.27485" lon="5.1097">
        <ele>218.4</ele>
        <time>2016-09-06T13:37:13Z</time>
      </trkpt>
      <trkpt lat="47.27491" lon="5.1096">
        <ele>218.1</ele>
        <time>2016-09-06T13:37:42Z</time>
      </trkpt>
      <trkpt lat="47.27498" lon="5.1095">
        <ele>218.2</ele>
        <time>2016-09-06T13:37:49Z</time>
      </trkpt>
      <trkpt lat="47.27503" lon="5.10938">
        <ele>218.1</ele>
        <time>2016-09-06T13:37:57Z</time>
      </trkpt>
      <trkpt lat="47.2751" lon="5.10928">
        <ele>218</ele>
        <time>2016-09-06T13:38:04Z</time>
      </trkpt>
      <trkpt lat="47.27517" lon="5.10918">
        <ele>218.3</ele>
        <time>2016-09-06T13:38:12Z</time>
      </trkpt>
      <trkpt lat="47.27522" lon="5.10906">
        <ele>218.9</ele>
        <time>2016-09-06T13:38:21Z</time>
      </trkpt>
      <trkpt lat="47.27528" lon="5.10894">
        <ele>218.8</ele>
        <time>2016-09-06T13:38:30Z</time>
      </trkpt>
      <trkpt lat="47.27534" lon="5.10883">
        <ele>218.8</ele>
        <time>2016-09-06T13:38:38Z</time>
      </trkpt>
      <trkpt lat="47.2754" lon="5.10874">
        <ele>218.8</ele>
        <time>2016-09-06T13:38:45Z</time>
      </trkpt>
      <trkpt lat="47.27546" lon="5.10862">
        <ele>219.4</ele>
        <time>2016-09-06T13:38:53Z</time>
      </trkpt>
      <trkpt lat="47.2755" lon="5.10849">
        <ele>219</ele>
        <time>2016-09-06T13:39:01Z</time>
      </trkpt>
      <trkpt lat="47.27555" lon="5.10837">
        <ele>218.7</ele>
        <time>2016-09-06T13:39:09Z</time>
      </trkpt>
      <trkpt lat="47.27563" lon="5.10827">
        <ele>218.5</ele>
        <time>2016-09-06T13:39:17Z</time>
      </trkpt>
      <trkpt lat="47.27571" lon="5.10818">
        <ele>218.2</ele>
        <time>2016-09-06T13:39:24Z</time>
      </trkpt>
      <trkpt lat="47.27576" lon="5.10806">
        <ele>218.8</ele>
        <time>2016-09-06T13:39:32Z</time>
      </trkpt>
      <trkpt lat="47.27582" lon="5.10794">
        <ele>218.8</ele>
        <time>2016-09-06T13:40:00Z</time>
      </trkpt>
      <trkpt lat="47.27588" lon="5.10784">
        <ele>218.9</ele>
        <time>2016-09-06T13:40:14Z</time>
      </trkpt>
      <trkpt lat="47.27593" lon="5.10772">
        <ele>218.8</ele>
        <time>2016-09-06T13:40:26Z</time>
      </trkpt>
      <trkpt lat="47.27601" lon="5.10767">
        <ele>218.9</ele>
        <time>2016-09-06T13:42:12Z</time>
      </trkpt>
      <trkpt lat="47.27606" lon="5.10755">
        <ele>218.9</ele>
        <time>2016-09-06T13:42:35Z</time>
      </trkpt>
      <trkpt lat="47.27613" lon="5.10744">
        <ele>219</ele>
        <time>2016-09-06T13:42:43Z</time>
      </trkpt>
      <trkpt lat="47.2762" lon="5.10734">
        <ele>219</ele>
        <time>2016-09-06T13:42:52Z</time>
      </trkpt>
      <trkpt lat="47.27625" lon="5.10722">
        <ele>219.2</ele>
        <time>2016-09-06T13:43:01Z</time>
      </trkpt>
      <trkpt lat="47.27632" lon="5.10712">
        <ele>219</ele>
        <time>2016-09-06T13:43:14Z</time>
      </trkpt>
      <trkpt lat="47.2764" lon="5.10704">
        <ele>219.5</ele>
        <time>2016-09-06T13:43:23Z</time>
      </trkpt>
      <trkpt lat="47.27647" lon="5.10694">
        <ele>219.4</ele>
        <time>2016-09-06T13:43:35Z</time>
      </trkpt>
      <trkpt lat="47.27653" lon="5.10683">
        <ele>219.2</ele>
        <time>2016-09-06T13:43:44Z</time>
      </trkpt>
      <trkpt lat="47.2766" lon="5.10673">
        <ele>219.3</ele>
        <time>2016-09-06T13:43:54Z</time>
      </trkpt>
      <trkpt lat="47.27666" lon="5.10661">
        <ele>219.4</ele>
        <time>2016-09-06T13:44:04Z</time>
      </trkpt>
      <trkpt lat="47.27672" lon="5.10651">
        <ele>219.9</ele>
        <time>2016-09-06T13:44:13Z</time>
      </trkpt>
      <trkpt lat="47.2768" lon="5.10643">
        <ele>219.7</ele>
        <time>2016-09-06T13:44:21Z</time>
      </trkpt>
      <trkpt lat="47.27687" lon="5.10634">
        <ele>219.9</ele>
        <time>2016-09-06T13:44:28Z</time>
      </trkpt>
      <trkpt lat="47.27694" lon="5.10625">
        <ele>219.8</ele>
        <time>2016-09-06T13:44:36Z</time>
      </trkpt>
      <trkpt lat="47.27701" lon="5.10615">
        <ele>219.8</ele>
        <time>2016-09-06T13:44:44Z</time>
      </trkpt>
      <trkpt lat="47.27707" lon="5.10604">
        <ele>219.6</ele>
        <time>2016-09-06T13:44:53Z</time>
      </trkpt>
      <trkpt lat="47.27711" lon="5.1059">
        <ele>219.4</ele>
        <time>2016-09-06T13:45:02Z</time>
      </trkpt>
      <trkpt lat="47.27718" lon="5.10582">
        <ele>219.1</ele>
        <time>2016-09-06T13:45:12Z</time>
      </trkpt>
      <trkpt lat="47.27727" lon="5.10578">
        <ele>219.1</ele>
        <time>2016-09-06T13:45:20Z</time>
      </trkpt>
      <trkpt lat="47.27736" lon="5.10572">
        <ele>219.3</ele>
        <time>2016-09-06T13:45:29Z</time>
      </trkpt>
      <trkpt lat="47.27742" lon="5.10561">
        <ele>219.3</ele>
        <time>2016-09-06T13:45:37Z</time>
      </trkpt>
      <trkpt lat="47.27745" lon="5.10549">
        <ele>219</ele>
        <time>2016-09-06T13:45:45Z</time>
      </trkpt>
      <trkpt lat="47.2775" lon="5.10536">
        <ele>219.2</ele>
        <time>2016-09-06T13:45:54Z</time>
      </trkpt>
      <trkpt lat="47.27755" lon="5.10525">
        <ele>219.8</ele>
        <time>2016-09-06T13:46:05Z</time>
      </trkpt>
      <trkpt lat="47.27761" lon="5.10514">
        <ele>220.1</ele>
        <time>2016-09-06T13:46:15Z</time>
      </trkpt>
      <trkpt lat="47.27766" lon="5.10501">
        <ele>219.8</ele>
        <time>2016-09-06T13:46:24Z</time>
      </trkpt>
      <trkpt lat="47.27769" lon="5.10488">
        <ele>219.3</ele>
        <time>2016-09-06T13:46:34Z</time>
      </trkpt>
      <trkpt lat="47.27776" lon="5.1048">
        <ele>220.4</ele>
        <time>2016-09-06T13:56:46Z</time>
      </trkpt>
      <trkpt lat="47.2778" lon="5.10466">
        <ele>220.2</ele>
        <time>2016-09-06T13:56:57Z</time>
      </trkpt>
      <trkpt lat="47.27778" lon="5.10453">
        <ele>220</ele>
        <time>2016-09-06T13:57:07Z</time>
      </trkpt>
      <trkpt lat="47.27779" lon="5.10439">
        <ele>220.2</ele>
        <time>2016-09-06T13:57:18Z</time>
      </trkpt>
      <trkpt lat="47.2778" lon="5.10426">
        <ele>220.2</ele>
        <time>2016-09-06T13:57:31Z</time>
      </trkpt>
      <trkpt lat="47.2779" lon="5.10427">
        <ele>222.3</ele>
        <time>2016-09-06T14:01:46Z</time>
      </trkpt>
      <trkpt lat="47.27798" lon="5.10432">
        <ele>223</ele>
        <time>2016-09-06T14:02:04Z</time>
      </trkpt>
      <trkpt lat="47.27804" lon="5.10442">
        <ele>223.6</ele>
        <time>2016-09-06T14:02:15Z</time>
      </trkpt>
      <trkpt lat="47.27811" lon="5.10452">
        <ele>223.4</ele>
        <time>2016-09-06T14:02:25Z</time>
      </trkpt>
      <trkpt lat="47.27817" lon="5.10461">
        <ele>223.7</ele>
        <time>2016-09-06T14:02:35Z</time>
      </trkpt>
      <trkpt lat="47.27826" lon="5.10467">
        <ele>223.6</ele>
        <time>2016-09-06T14:02:46Z</time>
      </trkpt>
      <trkpt lat="47.27834" lon="5.10473">
        <ele>223.4</ele>
        <time>2016-09-06T14:02:56Z</time>
      </trkpt>
      <trkpt lat="47.27842" lon="5.1048">
        <ele>223.4</ele>
        <time>2016-09-06T14:03:06Z</time>
      </trkpt>
      <trkpt lat="47.27851" lon="5.10474">
        <ele>222.8</ele>
        <time>2016-09-06T14:03:17Z</time>
      </trkpt>
      <trkpt lat="47.27857" lon="5.10464">
        <ele>221.6</ele>
        <time>2016-09-06T14:03:34Z</time>
      </trkpt>
      <trkpt lat="47.2786" lon="5.10449">
        <ele>220.7</ele>
        <time>2016-09-06T14:03:44Z</time>
      </trkpt>
      <trkpt lat="47.27864" lon="5.10436">
        <ele>220.2</ele>
        <time>2016-09-06T14:03:52Z</time>
      </trkpt>
      <trkpt lat="47.2787" lon="5.10425">
        <ele>220.2</ele>
        <time>2016-09-06T14:03:59Z</time>
      </trkpt>
      <trkpt lat="47.27875" lon="5.10413">
        <ele>220.2</ele>
        <time>2016-09-06T14:04:06Z</time>
      </trkpt>
      <trkpt lat="47.27881" lon="5.10403">
        <ele>220</ele>
        <time>2016-09-06T14:04:14Z</time>
      </trkpt>
      <trkpt lat="47.27887" lon="5.10392">
        <ele>219.6</ele>
        <time>2016-09-06T14:04:21Z</time>
      </trkpt>
      <trkpt lat="47.27894" lon="5.10382">
        <ele>219.8</ele>
        <time>2016-09-06T14:04:29Z</time>
      </trkpt>
      <trkpt lat="47.27899" lon="5.1037">
        <ele>219.9</ele>
        <time>2016-09-06T14:04:37Z</time>
      </trkpt>
      <trkpt lat="47.27905" lon="5.1036">
        <ele>220</ele>
        <time>2016-09-06T14:04:46Z</time>
      </trkpt>
      <trkpt lat="47.27911" lon="5.10349">
        <ele>219.6</ele>
        <time>2016-09-06T14:04:55Z</time>
      </trkpt>
      <trkpt lat="47.27919" lon="5.1034">
        <ele>220.1</ele>
        <time>2016-09-06T14:05:02Z</time>
      </trkpt>
      <trkpt lat="47.27926" lon="5.10332">
        <ele>219.9</ele>
        <time>2016-09-06T14:05:09Z</time>
      </trkpt>
      <trkpt lat="47.27932" lon="5.10321">
        <ele>219.9</ele>
        <time>2016-09-06T14:05:18Z</time>
      </trkpt>
      <trkpt lat="47.27938" lon="5.1031">
        <ele>220.3</ele>
        <time>2016-09-06T14:05:28Z</time>
      </trkpt>
      <trkpt lat="47.27944" lon="5.103">
        <ele>220.3</ele>
        <time>2016-09-06T14:05:37Z</time>
      </trkpt>
      <trkpt lat="47.27951" lon="5.10291">
        <ele>220.5</ele>
        <time>2016-09-06T14:05:45Z</time>
      </trkpt>
      <trkpt lat="47.27957" lon="5.1028">
        <ele>220.2</ele>
        <time>2016-09-06T14:05:53Z</time>
      </trkpt>
      <trkpt lat="47.27965" lon="5.10271">
        <ele>220</ele>
        <time>2016-09-06T14:06:01Z</time>
      </trkpt>
      <trkpt lat="47.27971" lon="5.1026">
        <ele>220.1</ele>
        <time>2016-09-06T14:06:12Z</time>
      </trkpt>
      <trkpt lat="47.27978" lon="5.1025">
        <ele>220.4</ele>
        <time>2016-09-06T14:06:22Z</time>
      </trkpt>
      <trkpt lat="47.27985" lon="5.10239">
        <ele>220.4</ele>
        <time>2016-09-06T14:06:31Z</time>
      </trkpt>
      <trkpt lat="47.27993" lon="5.1023">
        <ele>220.1</ele>
        <time>2016-09-06T14:06:39Z</time>
      </trkpt>
      <trkpt lat="47.27998" lon="5.10218">
        <ele>219.9</ele>
        <time>2016-09-06T14:06:47Z</time>
      </trkpt>
      <trkpt lat="47.28003" lon="5.10207">
        <ele>220.1</ele>
        <time>2016-09-06T14:06:56Z</time>
      </trkpt>
      <trkpt lat="47.28009" lon="5.10197">
        <ele>219.9</ele>
        <time>2016-09-06T14:07:03Z</time>
      </trkpt>
      <trkpt lat="47.28016" lon="5.10186">
        <ele>219.9</ele>
        <time>2016-09-06T14:07:11Z</time>
      </trkpt>
      <trkpt lat="47.28023" lon="5.10177">
        <ele>220.3</ele>
        <time>2016-09-06T14:07:19Z</time>
      </trkpt>
      <trkpt lat="47.28028" lon="5.10166">
        <ele>220.6</ele>
        <time>2016-09-06T14:07:27Z</time>
      </trkpt>
      <trkpt lat="47.28033" lon="5.10153">
        <ele>220.7</ele>
        <time>2016-09-06T14:07:36Z</time>
      </trkpt>
      <trkpt lat="47.28039" lon="5.10142">
        <ele>220.9</ele>
        <time>2016-09-06T14:07:46Z</time>
      </trkpt>
      <trkpt lat="47.28044" lon="5.10129">
        <ele>220.8</ele>
        <time>2016-09-06T14:07:55Z</time>
      </trkpt>
      <trkpt lat="47.2805" lon="5.10118">
        <ele>221</ele>
        <time>2016-09-06T14:08:03Z</time>
      </trkpt>
      <trkpt lat="47.28055" lon="5.10107">
        <ele>221.1</ele>
        <time>2016-09-06T14:08:11Z</time>
      </trkpt>
      <trkpt lat="47.2806" lon="5.10096">
        <ele>221</ele>
        <time>2016-09-06T14:08:19Z</time>
      </trkpt>
      <trkpt lat="47.28065" lon="5.10085">
        <ele>221</ele>
        <time>2016-09-06T14:08:27Z</time>
      </trkpt>
      <trkpt lat="47.28071" lon="5.10073">
        <ele>221</ele>
        <time>2016-09-06T14:08:35Z</time>
      </trkpt>
      <trkpt lat="47.28076" lon="5.10062">
        <ele>220.9</ele>
        <time>2016-09-06T14:08:43Z</time>
      </trkpt>
      <trkpt lat="47.28084" lon="5.10053">
        <ele>221</ele>
        <time>2016-09-06T14:08:50Z</time>
      </trkpt>
      <trkpt lat="47.28088" lon="5.1004">
        <ele>220.8</ele>
        <time>2016-09-06T14:08:58Z</time>
      </trkpt>
      <trkpt lat="47.28093" lon="5.10027">
        <ele>220.9</ele>
        <time>2016-09-06T14:09:07Z</time>
      </trkpt>
      <trkpt lat="47.28099" lon="5.10017">
        <ele>220.7</ele>
        <time>2016-09-06T14:09:16Z</time>
      </trkpt>
      <trkpt lat="47.28103" lon="5.10004">
        <ele>220.9</ele>
        <time>2016-09-06T14:09:25Z</time>
      </trkpt>
      <trkpt lat="47.28105" lon="5.09991">
        <ele>220.9</ele>
        <time>2016-09-06T14:09:34Z</time>
      </trkpt>
      <trkpt lat="47.28113" lon="5.09982">
        <ele>221.1</ele>
        <time>2016-09-06T14:09:43Z</time>
      </trkpt>
      <trkpt lat="47.28118" lon="5.09969">
        <ele>220.9</ele>
        <time>2016-09-06T14:09:51Z</time>
      </trkpt>
      <trkpt lat="47.28124" lon="5.09957">
        <ele>221</ele>
        <time>2016-09-06T14:09:59Z</time>
      </trkpt>
      <trkpt lat="47.28128" lon="5.09944">
        <ele>221</ele>
        <time>2016-09-06T14:10:07Z</time>
      </trkpt>
      <trkpt lat="47.28134" lon="5.09932">
        <ele>221.2</ele>
        <time>2016-09-06T14:10:16Z</time>
      </trkpt>
      <trkpt lat="47.28142" lon="5.09923">
        <ele>221.2</ele>
        <time>2016-09-06T14:10:24Z</time>
      </trkpt>
      <trkpt lat="47.28149" lon="5.09915">
        <ele>221.1</ele>
        <time>2016-09-06T14:10:33Z</time>
      </trkpt>
      <trkpt lat="47.28157" lon="5.09905">
        <ele>221.3</ele>
        <time>2016-09-06T14:10:42Z</time>
      </trkpt>
      <trkpt lat="47.28165" lon="5.09898">
        <ele>221.4</ele>
        <time>2016-09-06T14:10:49Z</time>
      </trkpt>
      <trkpt lat="47.28173" lon="5.09889">
        <ele>221.4</ele>
        <time>2016-09-06T14:10:57Z</time>
      </trkpt>
      <trkpt lat="47.2818" lon="5.09881">
        <ele>221.3</ele>
        <time>2016-09-06T14:11:06Z</time>
      </trkpt>
      <trkpt lat="47.28189" lon="5.09875">
        <ele>221.8</ele>
        <time>2016-09-06T14:11:21Z</time>
      </trkpt>
      <trkpt lat="47.28199" lon="5.0987">
        <ele>221.8</ele>
        <time>2016-09-06T14:11:28Z</time>
      </trkpt>
      <trkpt lat="47.28208" lon="5.09867">
        <ele>221.6</ele>
        <time>2016-09-06T14:11:34Z</time>
      </trkpt>
      <trkpt lat="47.28218" lon="5.09862">
        <ele>221.8</ele>
        <time>2016-09-06T14:11:41Z</time>
      </trkpt>
      <trkpt lat="47.28227" lon="5.09857">
        <ele>222.2</ele>
        <time>2016-09-06T14:11:48Z</time>
      </trkpt>
      <trkpt lat="47.28236" lon="5.09854">
        <ele>222</ele>
        <time>2016-09-06T14:11:58Z</time>
      </trkpt>
      <trkpt lat="47.28245" lon="5.0985">
        <ele>221.7</ele>
        <time>2016-09-06T14:12:08Z</time>
      </trkpt>
      <trkpt lat="47.28253" lon="5.09845">
        <ele>222.1</ele>
        <time>2016-09-06T14:12:15Z</time>
      </trkpt>
      <trkpt lat="47.28263" lon="5.09842">
        <ele>221.9</ele>
        <time>2016-09-06T14:12:22Z</time>
      </trkpt>
      <trkpt lat="47.28271" lon="5.09836">
        <ele>222</ele>
        <time>2016-09-06T14:12:30Z</time>
      </trkpt>
      <trkpt lat="47.2828" lon="5.09829">
        <ele>221.5</ele>
        <time>2016-09-06T14:12:39Z</time>
      </trkpt>
      <trkpt lat="47.28289" lon="5.09826">
        <ele>221.6</ele>
        <time>2016-09-06T14:12:47Z</time>
      </trkpt>
      <trkpt lat="47.28298" lon="5.09822">
        <ele>222</ele>
        <time>2016-09-06T14:12:54Z</time>
      </trkpt>
      <trkpt lat="47.28308" lon="5.09817">
        <ele>222.2</ele>
        <time>2016-09-06T14:13:03Z</time>
      </trkpt>
      <trkpt lat="47.28317" lon="5.09814">
        <ele>222.2</ele>
        <time>2016-09-06T14:13:12Z</time>
      </trkpt>
      <trkpt lat="47.28326" lon="5.09813">
        <ele>222.2</ele>
        <time>2016-09-06T14:13:19Z</time>
      </trkpt>
      <trkpt lat="47.28335" lon="5.09811">
        <ele>222.3</ele>
        <time>2016-09-06T14:13:25Z</time>
      </trkpt>
      <trkpt lat="47.28345" lon="5.09805">
        <ele>222.1</ele>
        <time>2016-09-06T14:13:32Z</time>
      </trkpt>
      <trkpt lat="47.28354" lon="5.09802">
        <ele>222</ele>
        <time>2016-09-06T14:13:40Z</time>
      </trkpt>
      <trkpt lat="47.28364" lon="5.09799">
        <ele>222.5</ele>
        <time>2016-09-06T14:13:47Z</time>
      </trkpt>
      <trkpt lat="47.28372" lon="5.09794">
        <ele>222.2</ele>
        <time>2016-09-06T14:13:54Z</time>
      </trkpt>
      <trkpt lat="47.28381" lon="5.09788">
        <ele>222.4</ele>
        <time>2016-09-06T14:14:02Z</time>
      </trkpt>
      <trkpt lat="47.28391" lon="5.09784">
        <ele>222.7</ele>
        <time>2016-09-06T14:14:10Z</time>
      </trkpt>
      <trkpt lat="47.28399" lon="5.0978">
        <ele>222.4</ele>
        <time>2016-09-06T14:14:17Z</time>
      </trkpt>
      <trkpt lat="47.28408" lon="5.09774">
        <ele>222.3</ele>
        <time>2016-09-06T14:14:25Z</time>
      </trkpt>
      <trkpt lat="47.28415" lon="5.09766">
        <ele>222.5</ele>
        <time>2016-09-06T14:14:33Z</time>
      </trkpt>
      <trkpt lat="47.28422" lon="5.09756">
        <ele>222.4</ele>
        <time>2016-09-06T14:14:42Z</time>
      </trkpt>
      <trkpt lat="47.28427" lon="5.09744">
        <ele>222.9</ele>
        <time>2016-09-06T14:14:50Z</time>
      </trkpt>
      <trkpt lat="47.28434" lon="5.09734">
        <ele>222.6</ele>
        <time>2016-09-06T14:14:59Z</time>
      </trkpt>
      <trkpt lat="47.28442" lon="5.09724">
        <ele>222.3</ele>
        <time>2016-09-06T14:15:07Z</time>
      </trkpt>
      <trkpt lat="47.28449" lon="5.09714">
        <ele>222.3</ele>
        <time>2016-09-06T14:15:15Z</time>
      </trkpt>
      <trkpt lat="47.28456" lon="5.09703">
        <ele>222.4</ele>
        <time>2016-09-06T14:15:23Z</time>
      </trkpt>
      <trkpt lat="47.28463" lon="5.09693">
        <ele>222.9</ele>
        <time>2016-09-06T14:15:31Z</time>
      </trkpt>
      <trkpt lat="47.28468" lon="5.09682">
        <ele>222.3</ele>
        <time>2016-09-06T14:15:38Z</time>
      </trkpt>
      <trkpt lat="47.28474" lon="5.09671">
        <ele>222.3</ele>
        <time>2016-09-06T14:15:46Z</time>
      </trkpt>
      <trkpt lat="47.28479" lon="5.0966">
        <ele>221.8</ele>
        <time>2016-09-06T14:15:54Z</time>
      </trkpt>
      <trkpt lat="47.28481" lon="5.09645">
        <ele>221.8</ele>
        <time>2016-09-06T14:16:03Z</time>
      </trkpt>
      <trkpt lat="47.28486" lon="5.09633">
        <ele>221.9</ele>
        <time>2016-09-06T14:16:11Z</time>
      </trkpt>
      <trkpt lat="47.28491" lon="5.09621">
        <ele>222.3</ele>
        <time>2016-09-06T14:16:18Z</time>
      </trkpt>
      <trkpt lat="47.28498" lon="5.09612">
        <ele>222</ele>
        <time>2016-09-06T14:16:25Z</time>
      </trkpt>
      <trkpt lat="47.28502" lon="5.09599">
        <ele>222.2</ele>
        <time>2016-09-06T14:16:33Z</time>
      </trkpt>
      <trkpt lat="47.28507" lon="5.09586">
        <ele>222.5</ele>
        <time>2016-09-06T14:16:41Z</time>
      </trkpt>
      <trkpt lat="47.2851" lon="5.09573">
        <ele>222.6</ele>
        <time>2016-09-06T14:16:48Z</time>
      </trkpt>
      <trkpt lat="47.28515" lon="5.09561">
        <ele>222.5</ele>
        <time>2016-09-06T14:16:56Z</time>
      </trkpt>
      <trkpt lat="47.28518" lon="5.09547">
        <ele>222.7</ele>
        <time>2016-09-06T14:17:05Z</time>
      </trkpt>
      <trkpt lat="47.28521" lon="5.09534">
        <ele>222.8</ele>
        <time>2016-09-06T14:17:13Z</time>
      </trkpt>
      <trkpt lat="47.28521" lon="5.0952">
        <ele>223</ele>
        <time>2016-09-06T14:17:21Z</time>
      </trkpt>
      <trkpt lat="47.28522" lon="5.09506">
        <ele>222.8</ele>
        <time>2016-09-06T14:17:29Z</time>
      </trkpt>
      <trkpt lat="47.2852" lon="5.09491">
        <ele>222.7</ele>
        <time>2016-09-06T14:17:38Z</time>
      </trkpt>
      <trkpt lat="47.28524" lon="5.09478">
        <ele>222.6</ele>
        <time>2016-09-06T14:17:46Z</time>
      </trkpt>
      <trkpt lat="47.28524" lon="5.09464">
        <ele>222.3</ele>
        <time>2016-09-06T14:17:56Z</time>
      </trkpt>
      <trkpt lat="47.28523" lon="5.0945">
        <ele>222.7</ele>
        <time>2016-09-06T14:18:05Z</time>
      </trkpt>
      <trkpt lat="47.28524" lon="5.09436">
        <ele>222.7</ele>
        <time>2016-09-06T14:18:13Z</time>
      </trkpt>
      <trkpt lat="47.2852" lon="5.09422">
        <ele>223.1</ele>
        <time>2016-09-06T14:18:20Z</time>
      </trkpt>
      <trkpt lat="47.28518" lon="5.09409">
        <ele>222.9</ele>
        <time>2016-09-06T14:18:31Z</time>
      </trkpt>
      <trkpt lat="47.28514" lon="5.09396">
        <ele>222.8</ele>
        <time>2016-09-06T14:18:40Z</time>
      </trkpt>
      <trkpt lat="47.28513" lon="5.09381">
        <ele>222.7</ele>
        <time>2016-09-06T14:18:48Z</time>
      </trkpt>
      <trkpt lat="47.2851" lon="5.09368">
        <ele>222.8</ele>
        <time>2016-09-06T14:18:54Z</time>
      </trkpt>
      <trkpt lat="47.28507" lon="5.09355">
        <ele>222.6</ele>
        <time>2016-09-06T14:19:11Z</time>
      </trkpt>
      <trkpt lat="47.28503" lon="5.09342">
        <ele>222.8</ele>
        <time>2016-09-06T14:19:16Z</time>
      </trkpt>
      <trkpt lat="47.28499" lon="5.09327">
        <ele>222.9</ele>
        <time>2016-09-06T14:19:22Z</time>
      </trkpt>
      <trkpt lat="47.28495" lon="5.09314">
        <ele>222.9</ele>
        <time>2016-09-06T14:19:28Z</time>
      </trkpt>
      <trkpt lat="47.28492" lon="5.09302">
        <ele>222.5</ele>
        <time>2016-09-06T14:19:34Z</time>
      </trkpt>
      <trkpt lat="47.28487" lon="5.09289">
        <ele>222.5</ele>
        <time>2016-09-06T14:19:40Z</time>
      </trkpt>
      <trkpt lat="47.28483" lon="5.09277">
        <ele>222.2</ele>
        <time>2016-09-06T14:19:45Z</time>
      </trkpt>
      <trkpt lat="47.28479" lon="5.09264">
        <ele>222.2</ele>
        <time>2016-09-06T14:19:52Z</time>
      </trkpt>
      <trkpt lat="47.28477" lon="5.09251">
        <ele>222.6</ele>
        <time>2016-09-06T14:19:59Z</time>
      </trkpt>
      <trkpt lat="47.28474" lon="5.09238">
        <ele>222.3</ele>
        <time>2016-09-06T14:20:07Z</time>
      </trkpt>
      <trkpt lat="47.2847" lon="5.09226">
        <ele>222.3</ele>
        <time>2016-09-06T14:20:18Z</time>
      </trkpt>
      <trkpt lat="47.28465" lon="5.09214">
        <ele>222.8</ele>
        <time>2016-09-06T14:20:25Z</time>
      </trkpt>
      <trkpt lat="47.2846" lon="5.09202">
        <ele>222.7</ele>
        <time>2016-09-06T14:20:32Z</time>
      </trkpt>
      <trkpt lat="47.28456" lon="5.09189">
        <ele>222.7</ele>
        <time>2016-09-06T14:20:41Z</time>
      </trkpt>
      <trkpt lat="47.28453" lon="5.09176">
        <ele>222.5</ele>
        <time>2016-09-06T14:20:48Z</time>
      </trkpt>
      <trkpt lat="47.28449" lon="5.09163">
        <ele>222.4</ele>
        <time>2016-09-06T14:20:55Z</time>
      </trkpt>
      <trkpt lat="47.28444" lon="5.09151">
        <ele>222.5</ele>
        <time>2016-09-06T14:21:06Z</time>
      </trkpt>
      <trkpt lat="47.2844" lon="5.09139">
        <ele>222.6</ele>
        <time>2016-09-06T14:21:11Z</time>
      </trkpt>
      <trkpt lat="47.28436" lon="5.09126">
        <ele>222.5</ele>
        <time>2016-09-06T14:21:17Z</time>
      </trkpt>
      <trkpt lat="47.28433" lon="5.09113">
        <ele>222.6</ele>
        <time>2016-09-06T14:21:24Z</time>
      </trkpt>
      <trkpt lat="47.28428" lon="5.091">
        <ele>222.7</ele>
        <time>2016-09-06T14:21:32Z</time>
      </trkpt>
      <trkpt lat="47.28424" lon="5.09087">
        <ele>222.6</ele>
        <time>2016-09-06T14:21:40Z</time>
      </trkpt>
      <trkpt lat="47.28421" lon="5.09075">
        <ele>222.5</ele>
        <time>2016-09-06T14:21:50Z</time>
      </trkpt>
      <trkpt lat="47.28416" lon="5.09062">
        <ele>222.3</ele>
        <time>2016-09-06T14:21:57Z</time>
      </trkpt>
      <trkpt lat="47.28411" lon="5.0905">
        <ele>222.3</ele>
        <time>2016-09-06T14:22:04Z</time>
      </trkpt>
      <trkpt lat="47.28409" lon="5.09036">
        <ele>222.6</ele>
        <time>2016-09-06T14:22:12Z</time>
      </trkpt>
      <trkpt lat="47.28404" lon="5.09024">
        <ele>222.7</ele>
        <time>2016-09-06T14:22:20Z</time>
      </trkpt>
      <trkpt lat="47.28398" lon="5.09013">
        <ele>223.5</ele>
        <time>2016-09-06T14:22:33Z</time>
      </trkpt>
      <trkpt lat="47.28394" lon="5.09">
        <ele>223.2</ele>
        <time>2016-09-06T14:22:40Z</time>
      </trkpt>
      <trkpt lat="47.28391" lon="5.08986">
        <ele>223.2</ele>
        <time>2016-09-06T14:22:49Z</time>
      </trkpt>
      <trkpt lat="47.28387" lon="5.08974">
        <ele>223.1</ele>
        <time>2016-09-06T14:22:55Z</time>
      </trkpt>
      <trkpt lat="47.28382" lon="5.08961">
        <ele>223.2</ele>
        <time>2016-09-06T14:23:03Z</time>
      </trkpt>
      <trkpt lat="47.28377" lon="5.08949">
        <ele>223</ele>
        <time>2016-09-06T14:23:10Z</time>
      </trkpt>
      <trkpt lat="47.28374" lon="5.08935">
        <ele>223.5</ele>
        <time>2016-09-06T14:23:19Z</time>
      </trkpt>
      <trkpt lat="47.2837" lon="5.08923">
        <ele>223.6</ele>
        <time>2016-09-06T14:23:30Z</time>
      </trkpt>
      <trkpt lat="47.28367" lon="5.08909">
        <ele>223.8</ele>
        <time>2016-09-06T14:23:37Z</time>
      </trkpt>
      <trkpt lat="47.28363" lon="5.08895">
        <ele>223.8</ele>
        <time>2016-09-06T14:23:46Z</time>
      </trkpt>
      <trkpt lat="47.2836" lon="5.08883">
        <ele>223.8</ele>
        <time>2016-09-06T14:23:52Z</time>
      </trkpt>
      <trkpt lat="47.28356" lon="5.0887">
        <ele>223.8</ele>
        <time>2016-09-06T14:23:59Z</time>
      </trkpt>
      <trkpt lat="47.28354" lon="5.08857">
        <ele>224.3</ele>
        <time>2016-09-06T14:24:10Z</time>
      </trkpt>
      <trkpt lat="47.28352" lon="5.08844">
        <ele>224.2</ele>
        <time>2016-09-06T14:24:17Z</time>
      </trkpt>
      <trkpt lat="47.28349" lon="5.08829">
        <ele>224.2</ele>
        <time>2016-09-06T14:24:25Z</time>
      </trkpt>
      <trkpt lat="47.28349" lon="5.08815">
        <ele>224</ele>
        <time>2016-09-06T14:24:31Z</time>
      </trkpt>
      <trkpt lat="47.28348" lon="5.08801">
        <ele>224.2</ele>
        <time>2016-09-06T14:24:37Z</time>
      </trkpt>
      <trkpt lat="47.28348" lon="5.08788">
        <ele>224.1</ele>
        <time>2016-09-06T14:24:44Z</time>
      </trkpt>
      <trkpt lat="47.2835" lon="5.08773">
        <ele>223.9</ele>
        <time>2016-09-06T14:24:52Z</time>
      </trkpt>
      <trkpt lat="47.28352" lon="5.0876">
        <ele>223.7</ele>
        <time>2016-09-06T14:24:59Z</time>
      </trkpt>
      <trkpt lat="47.28355" lon="5.08746">
        <ele>223.7</ele>
        <time>2016-09-06T14:25:07Z</time>
      </trkpt>
      <trkpt lat="47.28355" lon="5.08731">
        <ele>223</ele>
        <time>2016-09-06T14:25:15Z</time>
      </trkpt>
      <trkpt lat="47.28356" lon="5.08718">
        <ele>223.6</ele>
        <time>2016-09-06T14:25:23Z</time>
      </trkpt>
      <trkpt lat="47.28358" lon="5.08705">
        <ele>223.8</ele>
        <time>2016-09-06T14:25:30Z</time>
      </trkpt>
      <trkpt lat="47.28362" lon="5.08691">
        <ele>224.2</ele>
        <time>2016-09-06T14:25:38Z</time>
      </trkpt>
      <trkpt lat="47.28366" lon="5.08678">
        <ele>224.1</ele>
        <time>2016-09-06T14:25:46Z</time>
      </trkpt>
      <trkpt lat="47.2837" lon="5.08666">
        <ele>223.9</ele>
        <time>2016-09-06T14:25:55Z</time>
      </trkpt>
      <trkpt lat="47.28375" lon="5.08654">
        <ele>224</ele>
        <time>2016-09-06T14:26:03Z</time>
      </trkpt>
      <trkpt lat="47.28381" lon="5.08644">
        <ele>224.3</ele>
        <time>2016-09-06T14:26:48Z</time>
      </trkpt>
      <trkpt lat="47.28388" lon="5.08634">
        <ele>223.4</ele>
        <time>2016-09-06T14:27:30Z</time>
      </trkpt>
      <trkpt lat="47.28396" lon="5.08626">
        <ele>223.1</ele>
        <time>2016-09-06T14:27:38Z</time>
      </trkpt>
      <trkpt lat="47.28403" lon="5.08616">
        <ele>222.8</ele>
        <time>2016-09-06T14:27:45Z</time>
      </trkpt>
      <trkpt lat="47.2841" lon="5.08606">
        <ele>223.2</ele>
        <time>2016-09-06T14:27:52Z</time>
      </trkpt>
      <trkpt lat="47.28417" lon="5.08598">
        <ele>223.1</ele>
        <time>2016-09-06T14:28:04Z</time>
      </trkpt>
      <trkpt lat="47.28423" lon="5.08587">
        <ele>223.1</ele>
        <time>2016-09-06T14:28:12Z</time>
      </trkpt>
      <trkpt lat="47.2843" lon="5.08578">
        <ele>223.2</ele>
        <time>2016-09-06T14:28:20Z</time>
      </trkpt>
      <trkpt lat="47.28437" lon="5.08569">
        <ele>223.3</ele>
        <time>2016-09-06T14:28:27Z</time>
      </trkpt>
      <trkpt lat="47.28444" lon="5.08559">
        <ele>223.3</ele>
        <time>2016-09-06T14:28:35Z</time>
      </trkpt>
      <trkpt lat="47.28451" lon="5.08548">
        <ele>223.1</ele>
        <time>2016-09-06T14:28:43Z</time>
      </trkpt>
      <trkpt lat="47.28457" lon="5.08538">
        <ele>223.2</ele>
        <time>2016-09-06T14:28:50Z</time>
      </trkpt>
      <trkpt lat="47.28464" lon="5.08527">
        <ele>223.1</ele>
        <time>2016-09-06T14:28:58Z</time>
      </trkpt>
      <trkpt lat="47.28471" lon="5.08517">
        <ele>222.9</ele>
        <time>2016-09-06T14:29:06Z</time>
      </trkpt>
      <trkpt lat="47.28478" lon="5.08508">
        <ele>223.1</ele>
        <time>2016-09-06T14:29:14Z</time>
      </trkpt>
      <trkpt lat="47.28486" lon="5.08501">
        <ele>223.5</ele>
        <time>2016-09-06T14:29:24Z</time>
      </trkpt>
      <trkpt lat="47.28494" lon="5.08493">
        <ele>223.5</ele>
        <time>2016-09-06T14:29:32Z</time>
      </trkpt>
      <trkpt lat="47.28503" lon="5.08486">
        <ele>223.7</ele>
        <time>2016-09-06T14:29:39Z</time>
      </trkpt>
      <trkpt lat="47.28511" lon="5.08478">
        <ele>223.8</ele>
        <time>2016-09-06T14:29:48Z</time>
      </trkpt>
      <trkpt lat="47.28519" lon="5.08471">
        <ele>224.1</ele>
        <time>2016-09-06T14:29:56Z</time>
      </trkpt>
      <trkpt lat="47.28528" lon="5.08466">
        <ele>224.4</ele>
        <time>2016-09-06T14:30:04Z</time>
      </trkpt>
      <trkpt lat="47.28537" lon="5.08461">
        <ele>224.6</ele>
        <time>2016-09-06T14:30:12Z</time>
      </trkpt>
      <trkpt lat="47.28546" lon="5.08457">
        <ele>224.5</ele>
        <time>2016-09-06T14:30:20Z</time>
      </trkpt>
      <trkpt lat="47.28556" lon="5.08453">
        <ele>224.5</ele>
        <time>2016-09-06T14:30:41Z</time>
      </trkpt>
      <trkpt lat="47.28566" lon="5.08455">
        <ele>224.2</ele>
        <time>2016-09-06T14:30:49Z</time>
      </trkpt>
      <trkpt lat="47.28575" lon="5.08452">
        <ele>224.3</ele>
        <time>2016-09-06T14:30:56Z</time>
      </trkpt>
      <trkpt lat="47.28584" lon="5.08451">
        <ele>224.3</ele>
        <time>2016-09-06T14:31:03Z</time>
      </trkpt>
      <trkpt lat="47.28594" lon="5.08447">
        <ele>224.3</ele>
        <time>2016-09-06T14:31:11Z</time>
      </trkpt>
      <trkpt lat="47.28603" lon="5.08441">
        <ele>224.5</ele>
        <time>2016-09-06T14:31:20Z</time>
      </trkpt>
      <trkpt lat="47.28613" lon="5.08439">
        <ele>224.4</ele>
        <time>2016-09-06T14:31:27Z</time>
      </trkpt>
      <trkpt lat="47.28622" lon="5.08433">
        <ele>224.2</ele>
        <time>2016-09-06T14:31:35Z</time>
      </trkpt>
      <trkpt lat="47.28629" lon="5.08425">
        <ele>224.1</ele>
        <time>2016-09-06T14:31:44Z</time>
      </trkpt>
      <trkpt lat="47.28637" lon="5.08416">
        <ele>224.3</ele>
        <time>2016-09-06T14:31:53Z</time>
      </trkpt>
      <trkpt lat="47.28644" lon="5.08406">
        <ele>224.1</ele>
        <time>2016-09-06T14:32:02Z</time>
      </trkpt>
      <trkpt lat="47.2865" lon="5.08396">
        <ele>224.2</ele>
        <time>2016-09-06T14:32:09Z</time>
      </trkpt>
      <trkpt lat="47.28656" lon="5.08385">
        <ele>224.1</ele>
        <time>2016-09-06T14:32:17Z</time>
      </trkpt>
      <trkpt lat="47.28664" lon="5.08375">
        <ele>224.1</ele>
        <time>2016-09-06T14:32:25Z</time>
      </trkpt>
      <trkpt lat="47.28672" lon="5.08366">
        <ele>223.7</ele>
        <time>2016-09-06T14:32:32Z</time>
      </trkpt>
      <trkpt lat="47.28678" lon="5.08356">
        <ele>223.3</ele>
        <time>2016-09-06T14:32:39Z</time>
      </trkpt>
      <trkpt lat="47.28685" lon="5.08346">
        <ele>223.4</ele>
        <time>2016-09-06T14:32:47Z</time>
      </trkpt>
      <trkpt lat="47.28691" lon="5.08335">
        <ele>223.9</ele>
        <time>2016-09-06T14:32:55Z</time>
      </trkpt>
      <trkpt lat="47.28698" lon="5.08326">
        <ele>223.8</ele>
        <time>2016-09-06T14:33:03Z</time>
      </trkpt>
      <trkpt lat="47.28705" lon="5.08317">
        <ele>223.9</ele>
        <time>2016-09-06T14:33:11Z</time>
      </trkpt>
      <trkpt lat="47.28713" lon="5.08308">
        <ele>223.9</ele>
        <time>2016-09-06T14:33:19Z</time>
      </trkpt>
      <trkpt lat="47.28719" lon="5.08296">
        <ele>224.2</ele>
        <time>2016-09-06T14:33:28Z</time>
      </trkpt>
      <trkpt lat="47.28724" lon="5.08285">
        <ele>224.5</ele>
        <time>2016-09-06T14:33:36Z</time>
      </trkpt>
      <trkpt lat="47.28732" lon="5.08276">
        <ele>224.7</ele>
        <time>2016-09-06T14:33:45Z</time>
      </trkpt>
      <trkpt lat="47.2874" lon="5.08267">
        <ele>224.7</ele>
        <time>2016-09-06T14:33:53Z</time>
      </trkpt>
      <trkpt lat="47.28747" lon="5.08258">
        <ele>225</ele>
        <time>2016-09-06T14:34:01Z</time>
      </trkpt>
      <trkpt lat="47.2875" lon="5.08245">
        <ele>225.4</ele>
        <time>2016-09-06T14:34:09Z</time>
      </trkpt>
      <trkpt lat="47.28749" lon="5.08232">
        <ele>225.5</ele>
        <time>2016-09-06T14:34:16Z</time>
      </trkpt>
      <trkpt lat="47.28745" lon="5.08218">
        <ele>225.6</ele>
        <time>2016-09-06T14:34:24Z</time>
      </trkpt>
      <trkpt lat="47.28745" lon="5.08204">
        <ele>226.3</ele>
        <time>2016-09-06T14:34:33Z</time>
      </trkpt>
      <trkpt lat="47.28743" lon="5.08191">
        <ele>226.5</ele>
        <time>2016-09-06T14:34:41Z</time>
      </trkpt>
      <trkpt lat="47.28742" lon="5.08175">
        <ele>226.6</ele>
        <time>2016-09-06T14:34:47Z</time>
      </trkpt>
      <trkpt lat="47.2874" lon="5.08162">
        <ele>226.3</ele>
        <time>2016-09-06T14:34:54Z</time>
      </trkpt>
      <trkpt lat="47.28738" lon="5.08148">
        <ele>226.7</ele>
        <time>2016-09-06T14:35:06Z</time>
      </trkpt>
      <trkpt lat="47.28739" lon="5.08133">
        <ele>226.3</ele>
        <time>2016-09-06T14:35:12Z</time>
      </trkpt>
      <trkpt lat="47.28739" lon="5.08119">
        <ele>226.9</ele>
        <time>2016-09-06T14:35:19Z</time>
      </trkpt>
      <trkpt lat="47.28737" lon="5.08105">
        <ele>227</ele>
        <time>2016-09-06T14:35:26Z</time>
      </trkpt>
      <trkpt lat="47.28734" lon="5.08093">
        <ele>227</ele>
        <time>2016-09-06T14:35:33Z</time>
      </trkpt>
      <trkpt lat="47.28729" lon="5.08081">
        <ele>227.2</ele>
        <time>2016-09-06T14:35:42Z</time>
      </trkpt>
      <trkpt lat="47.28722" lon="5.08073">
        <ele>227.1</ele>
        <time>2016-09-06T14:36:02Z</time>
      </trkpt>
      <trkpt lat="47.28715" lon="5.08064">
        <ele>225</ele>
        <time>2016-09-06T14:36:35Z</time>
      </trkpt>
      <trkpt lat="47.28708" lon="5.08056">
        <ele>224.1</ele>
        <time>2016-09-06T14:36:44Z</time>
      </trkpt>
      <trkpt lat="47.28712" lon="5.08044">
        <ele>223.1</ele>
        <time>2016-09-06T14:38:25Z</time>
      </trkpt>
      <trkpt lat="47.28711" lon="5.0803">
        <ele>223.3</ele>
        <time>2016-09-06T14:38:42Z</time>
      </trkpt>
      <trkpt lat="47.2871" lon="5.08016">
        <ele>223.1</ele>
        <time>2016-09-06T14:38:59Z</time>
      </trkpt>
      <trkpt lat="47.28708" lon="5.08002">
        <ele>223.6</ele>
        <time>2016-09-06T14:39:14Z</time>
      </trkpt>
      <trkpt lat="47.28708" lon="5.07988">
        <ele>223.6</ele>
        <time>2016-09-06T14:39:22Z</time>
      </trkpt>
      <trkpt lat="47.28702" lon="5.07977">
        <ele>223.6</ele>
        <time>2016-09-06T14:39:29Z</time>
      </trkpt>
      <trkpt lat="47.28694" lon="5.07968">
        <ele>223.6</ele>
        <time>2016-09-06T14:39:35Z</time>
      </trkpt>
      <trkpt lat="47.28687" lon="5.07956">
        <ele>223.9</ele>
        <time>2016-09-06T14:39:41Z</time>
      </trkpt>
      <trkpt lat="47.28681" lon="5.07945">
        <ele>223.8</ele>
        <time>2016-09-06T14:39:47Z</time>
      </trkpt>
      <trkpt lat="47.28674" lon="5.07937">
        <ele>223.7</ele>
        <time>2016-09-06T14:39:54Z</time>
      </trkpt>
      <trkpt lat="47.28667" lon="5.07928">
        <ele>223.8</ele>
        <time>2016-09-06T14:40:02Z</time>
      </trkpt>
      <trkpt lat="47.2866" lon="5.07918">
        <ele>224.2</ele>
        <time>2016-09-06T14:40:08Z</time>
      </trkpt>
      <trkpt lat="47.28653" lon="5.07909">
        <ele>224</ele>
        <time>2016-09-06T14:40:17Z</time>
      </trkpt>
      <trkpt lat="47.28645" lon="5.07901">
        <ele>224</ele>
        <time>2016-09-06T14:40:26Z</time>
      </trkpt>
      <trkpt lat="47.28637" lon="5.07894">
        <ele>223.8</ele>
        <time>2016-09-06T14:40:36Z</time>
      </trkpt>
      <trkpt lat="47.28628" lon="5.07888">
        <ele>224.3</ele>
        <time>2016-09-06T14:40:44Z</time>
      </trkpt>
      <trkpt lat="47.28619" lon="5.07886">
        <ele>224.2</ele>
        <time>2016-09-06T14:40:52Z</time>
      </trkpt>
      <trkpt lat="47.28609" lon="5.07885">
        <ele>224.2</ele>
        <time>2016-09-06T14:41:00Z</time>
      </trkpt>
      <trkpt lat="47.286" lon="5.07884">
        <ele>224.3</ele>
        <time>2016-09-06T14:41:08Z</time>
      </trkpt>
      <trkpt lat="47.2859" lon="5.07883">
        <ele>224.1</ele>
        <time>2016-09-06T14:41:16Z</time>
      </trkpt>
      <trkpt lat="47.28581" lon="5.07882">
        <ele>224.1</ele>
        <time>2016-09-06T14:41:24Z</time>
      </trkpt>
      <trkpt lat="47.28572" lon="5.07883">
        <ele>224.2</ele>
        <time>2016-09-06T14:41:33Z</time>
      </trkpt>
      <trkpt lat="47.28563" lon="5.07884">
        <ele>224.1</ele>
        <time>2016-09-06T14:41:41Z</time>
      </trkpt>
      <trkpt lat="47.28553" lon="5.07885">
        <ele>224</ele>
        <time>2016-09-06T14:41:50Z</time>
      </trkpt>
      <trkpt lat="47.28544" lon="5.07886">
        <ele>224.1</ele>
        <time>2016-09-06T14:41:58Z</time>
      </trkpt>
      <trkpt lat="47.28536" lon="5.07893">
        <ele>224</ele>
        <time>2016-09-06T14:42:06Z</time>
      </trkpt>
      <trkpt lat="47.28527" lon="5.07898">
        <ele>224.2</ele>
        <time>2016-09-06T14:42:14Z</time>
      </trkpt>
      <trkpt lat="47.28518" lon="5.07902">
        <ele>223.7</ele>
        <time>2016-09-06T14:42:23Z</time>
      </trkpt>
      <trkpt lat="47.28508" lon="5.07904">
        <ele>224</ele>
        <time>2016-09-06T14:42:32Z</time>
      </trkpt>
      <trkpt lat="47.28499" lon="5.07904">
        <ele>224</ele>
        <time>2016-09-06T14:42:40Z</time>
      </trkpt>
      <trkpt lat="47.2849" lon="5.07899">
        <ele>223.3</ele>
        <time>2016-09-06T14:44:25Z</time>
      </trkpt>
      <trkpt lat="47.28489" lon="5.07886">
        <ele>223.4</ele>
        <time>2016-09-06T14:44:35Z</time>
      </trkpt>
      <trkpt lat="47.28489" lon="5.07872">
        <ele>223.6</ele>
        <time>2016-09-06T14:44:44Z</time>
      </trkpt>
      <trkpt lat="47.28488" lon="5.07858">
        <ele>223.6</ele>
        <time>2016-09-06T14:44:52Z</time>
      </trkpt>
      <trkpt lat="47.28486" lon="5.07844">
        <ele>223.7</ele>
        <time>2016-09-06T14:45:00Z</time>
      </trkpt>
      <trkpt lat="47.28484" lon="5.0783">
        <ele>223.6</ele>
        <time>2016-09-06T14:45:12Z</time>
      </trkpt>
      <trkpt lat="47.28479" lon="5.0782">
        <ele>223.2</ele>
        <time>2016-09-06T14:45:21Z</time>
      </trkpt>
      <trkpt lat="47.28472" lon="5.07811">
        <ele>223.2</ele>
        <time>2016-09-06T14:45:28Z</time>
      </trkpt>
      <trkpt lat="47.28463" lon="5.07803">
        <ele>223.1</ele>
        <time>2016-09-06T14:45:36Z</time>
      </trkpt>
      <trkpt lat="47.28454" lon="5.07798">
        <ele>223.4</ele>
        <time>2016-09-06T14:45:45Z</time>
      </trkpt>
      <trkpt lat="47.28445" lon="5.07794">
        <ele>223.1</ele>
        <time>2016-09-06T14:45:53Z</time>
      </trkpt>
      <trkpt lat="47.28436" lon="5.07788">
        <ele>223.1</ele>
        <time>2016-09-06T14:46:00Z</time>
      </trkpt>
      <trkpt lat="47.28428" lon="5.07781">
        <ele>223</ele>
        <time>2016-09-06T14:46:09Z</time>
      </trkpt>
      <trkpt lat="47.28421" lon="5.07773">
        <ele>223.3</ele>
        <time>2016-09-06T14:46:17Z</time>
      </trkpt>
      <trkpt lat="47.28415" lon="5.07761">
        <ele>223.6</ele>
        <time>2016-09-06T14:46:27Z</time>
      </trkpt>
      <trkpt lat="47.2841" lon="5.07749">
        <ele>223.3</ele>
        <time>2016-09-06T14:46:34Z</time>
      </trkpt>
      <trkpt lat="47.28406" lon="5.07737">
        <ele>223.3</ele>
        <time>2016-09-06T14:46:44Z</time>
      </trkpt>
      <trkpt lat="47.28399" lon="5.07728">
        <ele>223.3</ele>
        <time>2016-09-06T14:46:52Z</time>
      </trkpt>
      <trkpt lat="47.28391" lon="5.0772">
        <ele>223.3</ele>
        <time>2016-09-06T14:47:00Z</time>
      </trkpt>
      <trkpt lat="47.28384" lon="5.07711">
        <ele>223.4</ele>
        <time>2016-09-06T14:47:09Z</time>
      </trkpt>
      <trkpt lat="47.28376" lon="5.077">
        <ele>223.5</ele>
        <time>2016-09-06T14:47:17Z</time>
      </trkpt>
      <trkpt lat="47.28369" lon="5.07693">
        <ele>223.3</ele>
        <time>2016-09-06T14:47:25Z</time>
      </trkpt>
      <trkpt lat="47.28361" lon="5.07686">
        <ele>223.8</ele>
        <time>2016-09-06T14:47:34Z</time>
      </trkpt>
      <trkpt lat="47.28352" lon="5.07681">
        <ele>223.5</ele>
        <time>2016-09-06T14:47:44Z</time>
      </trkpt>
      <trkpt lat="47.28344" lon="5.07674">
        <ele>223.3</ele>
        <time>2016-09-06T14:47:53Z</time>
      </trkpt>
      <trkpt lat="47.28337" lon="5.07664">
        <ele>223.5</ele>
        <time>2016-09-06T14:48:02Z</time>
      </trkpt>
      <trkpt lat="47.28331" lon="5.07653">
        <ele>223.5</ele>
        <time>2016-09-06T14:48:10Z</time>
      </trkpt>
      <trkpt lat="47.2833" lon="5.0764">
        <ele>223.6</ele>
        <time>2016-09-06T14:48:18Z</time>
      </trkpt>
      <trkpt lat="47.28329" lon="5.07626">
        <ele>223.8</ele>
        <time>2016-09-06T14:48:40Z</time>
      </trkpt>
      <trkpt lat="47.28321" lon="5.07618">
        <ele>223.6</ele>
        <time>2016-09-06T14:48:52Z</time>
      </trkpt>
      <trkpt lat="47.28314" lon="5.07608">
        <ele>223.3</ele>
        <time>2016-09-06T14:49:01Z</time>
      </trkpt>
      <trkpt lat="47.28312" lon="5.07601">
        <ele>223.9</ele>
        <time>2016-09-06T14:49:59Z</time>
      </trkpt>
    </trkseg>
  </trk>
</gpx>